﻿<?xml version="1.0" encoding="utf-8"?><gpx creator="Garmin Desktop App" version="1.1" xsi:schemaLocation="http://www.topografix.com/GPX/1/1 http://www.topografix.com/GPX/1/1/gpx.xsd http://www.garmin.com/xmlschemas/WaypointExtension/v1 http://www8.garmin.com/xmlschemas/WaypointExtensionv1.xsd http://www.garmin.com/xmlschemas/TrackPointExtension/v1 http://www.garmin.com/xmlschemas/TrackPointExtensionv1.xsd http://www.garmin.com/xmlschemas/GpxExtensions/v3 http://www8.garmin.com/xmlschemas/GpxExtensionsv3.xsd http://www.garmin.com/xmlschemas/ActivityExtension/v1 http://www8.garmin.com/xmlschemas/ActivityExtensionv1.xsd http://www.garmin.com/xmlschemas/AdventuresExtensions/v1 http://www8.garmin.com/xmlschemas/AdventuresExtensionv1.xsd http://www.garmin.com/xmlschemas/PressureExtension/v1 http://www.garmin.com/xmlschemas/PressureExtensionv1.xsd http://www.garmin.com/xmlschemas/TripExtensions/v1 http://www.garmin.com/xmlschemas/TripExtensionsv1.xsd http://www.garmin.com/xmlschemas/TripMetaDataExtensions/v1 http://www.garmin.com/xmlschemas/TripMetaDataExtensionsv1.xsd http://www.garmin.com/xmlschemas/ViaPointTransportationModeExtensions/v1 http://www.garmin.com/xmlschemas/ViaPointTransportationModeExtensionsv1.xsd http://www.garmin.com/xmlschemas/CreationTimeExtension/v1 http://www.garmin.com/xmlschemas/CreationTimeExtensionsv1.xsd http://www.garmin.com/xmlschemas/AccelerationExtension/v1 http://www.garmin.com/xmlschemas/AccelerationExtensionv1.xsd http://www.garmin.com/xmlschemas/PowerExtension/v1 http://www.garmin.com/xmlschemas/PowerExtensionv1.xsd http://www.garmin.com/xmlschemas/VideoExtension/v1 http://www.garmin.com/xmlschemas/VideoExtensionv1.xsd" xmlns="http://www.topografix.com/GPX/1/1" xmlns:xsi="http://www.w3.org/2001/XMLSchema-instance" xmlns:wptx1="http://www.garmin.com/xmlschemas/WaypointExtension/v1" xmlns:gpxtrx="http://www.garmin.com/xmlschemas/GpxExtensions/v3" xmlns:gpxtpx="http://www.garmin.com/xmlschemas/TrackPointExtension/v1" xmlns:gpxx="http://www.garmin.com/xmlschemas/GpxExtensions/v3" xmlns:trp="http://www.garmin.com/xmlschemas/TripExtensions/v1" xmlns:adv="http://www.garmin.com/xmlschemas/AdventuresExtensions/v1" xmlns:prs="http://www.garmin.com/xmlschemas/PressureExtension/v1" xmlns:tmd="http://www.garmin.com/xmlschemas/TripMetaDataExtensions/v1" xmlns:vptm="http://www.garmin.com/xmlschemas/ViaPointTransportationModeExtensions/v1" xmlns:ctx="http://www.garmin.com/xmlschemas/CreationTimeExtension/v1" xmlns:gpxacc="http://www.garmin.com/xmlschemas/AccelerationExtension/v1" xmlns:gpxpx="http://www.garmin.com/xmlschemas/PowerExtension/v1" xmlns:vidx1="http://www.garmin.com/xmlschemas/VideoExtension/v1">

  <metadata>
    <link href="http://www.garmin.com">
      <text>Garmin International</text>
    </link>
    <time>2015-01-08T14:58:07Z</time>
    <bounds maxlat="49.451843854039907" maxlon="22.411909634247422" minlat="49.430377464741468" minlon="22.377855805680156" />
  </metadata>

  <trk>
    <name>MYCZKOW CZARNA 001</name>
    <extensions>
      <gpxx:TrackExtension>
        <gpxx:DisplayColor>Black</gpxx:DisplayColor>
      </gpxx:TrackExtension>
    </extensions>
    <trkseg>
      <trkpt lat="49.443177971988916" lon="22.38213736563921">
        <ele>331.31</ele>
        <time>2014-10-11T07:11:58Z</time>
      </trkpt>
      <trkpt lat="49.443178893998265" lon="22.382136527448893">
        <ele>337.07999999999998</ele>
        <time>2014-10-11T07:11:59Z</time>
      </trkpt>
      <trkpt lat="49.443171266466379" lon="22.38218673504889">
        <ele>333.70999999999998</ele>
        <time>2014-10-11T07:12:13Z</time>
      </trkpt>
      <trkpt lat="49.44314050488174" lon="22.382182208821177">
        <ele>358.70999999999998</ele>
        <time>2014-10-11T07:14:51Z</time>
      </trkpt>
      <trkpt lat="49.443160621449351" lon="22.382180700078607">
        <ele>359.67000000000002</ele>
        <time>2014-10-11T07:15:08Z</time>
      </trkpt>
      <trkpt lat="49.443158358335495" lon="22.3821119684726">
        <ele>360.14999999999998</ele>
        <time>2014-10-11T07:15:35Z</time>
      </trkpt>
      <trkpt lat="49.443171434104443" lon="22.382115572690964">
        <ele>360.14999999999998</ele>
        <time>2014-10-11T07:15:36Z</time>
      </trkpt>
      <trkpt lat="49.443143606185913" lon="22.382039465010166">
        <ele>360.63</ele>
        <time>2014-10-11T07:15:47Z</time>
      </trkpt>
      <trkpt lat="49.443076131865382" lon="22.381976936012506">
        <ele>359.67000000000002</ele>
        <time>2014-10-11T07:15:55Z</time>
      </trkpt>
      <trkpt lat="49.442988373339176" lon="22.381923291832209">
        <ele>359.67000000000002</ele>
        <time>2014-10-11T07:19:33Z</time>
      </trkpt>
      <trkpt lat="49.442802043631673" lon="22.381728161126375">
        <ele>359.19</ele>
        <time>2014-10-11T07:19:48Z</time>
      </trkpt>
      <trkpt lat="49.442721158266068" lon="22.381617855280638">
        <ele>359.19</ele>
        <time>2014-10-11T07:19:59Z</time>
      </trkpt>
      <trkpt lat="49.442630214616656" lon="22.381514422595501">
        <ele>359.19</ele>
        <time>2014-10-11T07:21:51Z</time>
      </trkpt>
      <trkpt lat="49.442557292059064" lon="22.381309233605862">
        <ele>359.19</ele>
        <time>2014-10-11T07:21:58Z</time>
      </trkpt>
      <trkpt lat="49.442464923486114" lon="22.380967000499368">
        <ele>359.19</ele>
        <time>2014-10-11T07:22:08Z</time>
      </trkpt>
      <trkpt lat="49.442394850775599" lon="22.380692828446627">
        <ele>359.19</ele>
        <time>2014-10-11T07:22:31Z</time>
      </trkpt>
      <trkpt lat="49.442196702584624" lon="22.379856901243329">
        <ele>359.19</ele>
        <time>2014-10-11T07:26:42Z</time>
      </trkpt>
      <trkpt lat="49.442070219665766" lon="22.37940059043467">
        <ele>358.70999999999998</ele>
        <time>2014-10-11T07:26:51Z</time>
      </trkpt>
      <trkpt lat="49.441910963505507" lon="22.37877119332552">
        <ele>359.19</ele>
        <time>2014-10-11T07:27:03Z</time>
      </trkpt>
      <trkpt lat="49.441882632672787" lon="22.378672119230032">
        <ele>358.70999999999998</ele>
        <time>2014-10-11T07:27:19Z</time>
      </trkpt>
      <trkpt lat="49.441881459206343" lon="22.378634065389633">
        <ele>358.70999999999998</ele>
        <time>2014-10-11T07:27:55Z</time>
      </trkpt>
      <trkpt lat="49.441877100616693" lon="22.3786167986691">
        <ele>359.19</ele>
        <time>2014-10-11T07:27:56Z</time>
      </trkpt>
      <trkpt lat="49.441814906895161" lon="22.378392750397325">
        <ele>358.70999999999998</ele>
        <time>2014-10-11T07:28:02Z</time>
      </trkpt>
      <trkpt lat="49.441633773967624" lon="22.378120087087154">
        <ele>359.19</ele>
        <time>2014-10-11T07:28:09Z</time>
      </trkpt>
      <trkpt lat="49.441430512815714" lon="22.377973990514874">
        <ele>357.26999999999998</ele>
        <time>2014-10-11T07:33:55Z</time>
      </trkpt>
      <trkpt lat="49.441342586651444" lon="22.377997962757945">
        <ele>356.79000000000002</ele>
        <time>2014-10-11T07:36:39Z</time>
      </trkpt>
      <trkpt lat="49.441318111494184" lon="22.377988742664456">
        <ele>356.79000000000002</ele>
        <time>2014-10-11T07:36:40Z</time>
      </trkpt>
      <trkpt lat="49.441102361306548" lon="22.377940462902188">
        <ele>356.31</ele>
        <time>2014-10-11T07:36:47Z</time>
      </trkpt>
      <trkpt lat="49.440773455426097" lon="22.377904672175646">
        <ele>356.31</ele>
        <time>2014-10-11T07:36:57Z</time>
      </trkpt>
      <trkpt lat="49.440489895641804" lon="22.377855805680156">
        <ele>355.82999999999998</ele>
        <time>2014-10-11T07:37:05Z</time>
      </trkpt>
      <trkpt lat="49.440195271745324" lon="22.377906180918217">
        <ele>355.82999999999998</ele>
        <time>2014-10-11T07:37:14Z</time>
      </trkpt>
      <trkpt lat="49.43995026871562" lon="22.377935936674476">
        <ele>355.82999999999998</ele>
        <time>2014-10-11T07:37:22Z</time>
      </trkpt>
      <trkpt lat="49.43978950381279" lon="22.377943648025393">
        <ele>356.31</ele>
        <time>2014-10-11T07:37:30Z</time>
      </trkpt>
      <trkpt lat="49.439772069454193" lon="22.377954544499516">
        <ele>356.31</ele>
        <time>2014-10-11T07:37:31Z</time>
      </trkpt>
      <trkpt lat="49.439754970371723" lon="22.377965440973639">
        <ele>355.82999999999998</ele>
        <time>2014-10-11T07:37:32Z</time>
      </trkpt>
      <trkpt lat="49.439732003957033" lon="22.377974074333906">
        <ele>355.82999999999998</ele>
        <time>2014-10-11T07:37:33Z</time>
      </trkpt>
      <trkpt lat="49.439715072512627" lon="22.377980276942253">
        <ele>355.82999999999998</ele>
        <time>2014-10-11T07:37:34Z</time>
      </trkpt>
      <trkpt lat="49.439701493829489" lon="22.377987820655107">
        <ele>355.82999999999998</ele>
        <time>2014-10-11T07:37:35Z</time>
      </trkpt>
      <trkpt lat="49.439686741679907" lon="22.377997292205691">
        <ele>355.82999999999998</ele>
        <time>2014-10-11T07:37:36Z</time>
      </trkpt>
      <trkpt lat="49.439612478017807" lon="22.378093264997005">
        <ele>355.82999999999998</ele>
        <time>2014-10-11T07:38:45Z</time>
      </trkpt>
      <trkpt lat="49.439615411683917" lon="22.378139281645417">
        <ele>355.82999999999998</ele>
        <time>2014-10-11T07:39:11Z</time>
      </trkpt>
      <trkpt lat="49.439604347571731" lon="22.378168702125549">
        <ele>355.33999999999997</ele>
        <time>2014-10-11T07:40:58Z</time>
      </trkpt>
      <trkpt lat="49.439596468582749" lon="22.378174820914865">
        <ele>355.33999999999997</ele>
        <time>2014-10-11T07:40:59Z</time>
      </trkpt>
      <trkpt lat="49.43958624266088" lon="22.378179682418704">
        <ele>355.33999999999997</ele>
        <time>2014-10-11T07:41:00Z</time>
      </trkpt>
      <trkpt lat="49.439570819959044" lon="22.378184041008353">
        <ele>355.82999999999998</ele>
        <time>2014-10-11T07:41:01Z</time>
      </trkpt>
      <trkpt lat="49.439552463591099" lon="22.378191752359271">
        <ele>355.33999999999997</ele>
        <time>2014-10-11T07:41:02Z</time>
      </trkpt>
      <trkpt lat="49.439531844109297" lon="22.378202062100172">
        <ele>355.33999999999997</ele>
        <time>2014-10-11T07:41:03Z</time>
      </trkpt>
      <trkpt lat="49.439305616542697" lon="22.37837590277195">
        <ele>355.33999999999997</ele>
        <time>2014-10-11T07:41:11Z</time>
      </trkpt>
      <trkpt lat="49.438993977382779" lon="22.378688547760248">
        <ele>355.33999999999997</ele>
        <time>2014-10-11T07:41:22Z</time>
      </trkpt>
      <trkpt lat="49.438758864998817" lon="22.378938747569919">
        <ele>355.33999999999997</ele>
        <time>2014-10-11T07:41:31Z</time>
      </trkpt>
      <trkpt lat="49.43857136182487" lon="22.379112588241696">
        <ele>355.33999999999997</ele>
        <time>2014-10-11T07:41:39Z</time>
      </trkpt>
      <trkpt lat="49.438539007678628" lon="22.379154330119491">
        <ele>355.33999999999997</ele>
        <time>2014-10-11T07:41:45Z</time>
      </trkpt>
      <trkpt lat="49.438543533906341" lon="22.379152569919825">
        <ele>355.33999999999997</ele>
        <time>2014-10-11T07:41:54Z</time>
      </trkpt>
      <trkpt lat="49.438520148396492" lon="22.379200765863061">
        <ele>355.33999999999997</ele>
        <time>2014-10-11T07:42:14Z</time>
      </trkpt>
      <trkpt lat="49.438542276620865" lon="22.379215769469738">
        <ele>355.33999999999997</ele>
        <time>2014-10-11T07:42:30Z</time>
      </trkpt>
      <trkpt lat="49.438416212797165" lon="22.379552973434329">
        <ele>355.33999999999997</ele>
        <time>2014-10-11T07:48:02Z</time>
      </trkpt>
      <trkpt lat="49.437641222029924" lon="22.380945375189185">
        <ele>354.86000000000001</ele>
        <time>2014-10-11T07:52:32Z</time>
      </trkpt>
      <trkpt lat="49.437497137114406" lon="22.381216362118721">
        <ele>355.33999999999997</ele>
        <time>2014-10-11T07:52:40Z</time>
      </trkpt>
      <trkpt lat="49.43739328533411" lon="22.381407972425222">
        <ele>355.33999999999997</ele>
        <time>2014-10-11T07:52:47Z</time>
      </trkpt>
      <trkpt lat="49.437239561229944" lon="22.381700836122036">
        <ele>354.86000000000001</ele>
        <time>2014-10-11T07:52:57Z</time>
      </trkpt>
      <trkpt lat="49.43715775385499" lon="22.381884148344398">
        <ele>355.33999999999997</ele>
        <time>2014-10-11T07:54:37Z</time>
      </trkpt>
      <trkpt lat="49.436970669776201" lon="22.382237613201141">
        <ele>354.86000000000001</ele>
        <time>2014-10-11T07:54:45Z</time>
      </trkpt>
      <trkpt lat="49.436789872124791" lon="22.382604405283928">
        <ele>355.33999999999997</ele>
        <time>2014-10-11T07:54:54Z</time>
      </trkpt>
      <trkpt lat="49.436569008976221" lon="22.383089801296592">
        <ele>354.86000000000001</ele>
        <time>2014-10-11T07:59:51Z</time>
      </trkpt>
      <trkpt lat="49.436593819409609" lon="22.383106146007776">
        <ele>354.86000000000001</ele>
        <time>2014-10-11T08:00:12Z</time>
      </trkpt>
      <trkpt lat="49.43655819632113" lon="22.383265905082226">
        <ele>354.86000000000001</ele>
        <time>2014-10-11T08:02:15Z</time>
      </trkpt>
      <trkpt lat="49.436395252123475" lon="22.383630014955997">
        <ele>354.38</ele>
        <time>2014-10-11T08:02:24Z</time>
      </trkpt>
      <trkpt lat="49.4362230040133" lon="22.384046260267496">
        <ele>354.86000000000001</ele>
        <time>2014-10-11T08:02:34Z</time>
      </trkpt>
      <trkpt lat="49.436181848868728" lon="22.38417643122375">
        <ele>354.38</ele>
        <time>2014-10-11T08:02:40Z</time>
      </trkpt>
      <trkpt lat="49.43619123660028" lon="22.384179448708892">
        <ele>354.38</ele>
        <time>2014-10-11T08:02:49Z</time>
      </trkpt>
      <trkpt lat="49.435987388715148" lon="22.385684922337532">
        <ele>354.38</ele>
        <time>2014-10-11T08:12:28Z</time>
      </trkpt>
      <trkpt lat="49.435790162533522" lon="22.386501738801599">
        <ele>353.42000000000002</ele>
        <time>2014-10-11T08:12:42Z</time>
      </trkpt>
      <trkpt lat="49.435734841972589" lon="22.3869489133358">
        <ele>353.89999999999998</ele>
        <time>2014-10-11T08:12:53Z</time>
      </trkpt>
      <trkpt lat="49.435556139796972" lon="22.388023473322392">
        <ele>352.94</ele>
        <time>2014-10-11T08:20:41Z</time>
      </trkpt>
      <trkpt lat="49.435492772608995" lon="22.388700479641557">
        <ele>352.45999999999998</ele>
        <time>2014-10-11T08:20:53Z</time>
      </trkpt>
      <trkpt lat="49.435461172834039" lon="22.389294672757387">
        <ele>351.98000000000002</ele>
        <time>2014-10-11T08:21:04Z</time>
      </trkpt>
      <trkpt lat="49.435451366007328" lon="22.389633636921644">
        <ele>352.45999999999998</ele>
        <time>2014-10-11T08:21:13Z</time>
      </trkpt>
      <trkpt lat="49.435401074588299" lon="22.389905210584402">
        <ele>351.98000000000002</ele>
        <time>2014-10-11T08:21:22Z</time>
      </trkpt>
      <trkpt lat="49.435388334095478" lon="22.390244761481881">
        <ele>351.5</ele>
        <time>2014-10-11T08:21:31Z</time>
      </trkpt>
      <trkpt lat="49.435370313003659" lon="22.390604261308908">
        <ele>351.5</ele>
        <time>2014-10-11T08:21:41Z</time>
      </trkpt>
      <trkpt lat="49.435359667986631" lon="22.39082126878202">
        <ele>351.5</ele>
        <time>2014-10-11T08:21:49Z</time>
      </trkpt>
      <trkpt lat="49.43532245233655" lon="22.391127543523908">
        <ele>351.5</ele>
        <time>2014-10-11T08:21:57Z</time>
      </trkpt>
      <trkpt lat="49.435248356312513" lon="22.391538005322218">
        <ele>351.01999999999998</ele>
        <time>2014-10-11T08:22:07Z</time>
      </trkpt>
      <trkpt lat="49.435227150097489" lon="22.391829779371619">
        <ele>351.5</ele>
        <time>2014-10-11T08:22:15Z</time>
      </trkpt>
      <trkpt lat="49.435201333835721" lon="22.391971768811345">
        <ele>351.5</ele>
        <time>2014-10-11T08:22:22Z</time>
      </trkpt>
      <trkpt lat="49.435190772637725" lon="22.391989370808005">
        <ele>351.5</ele>
        <time>2014-10-11T08:22:32Z</time>
      </trkpt>
      <trkpt lat="49.435191191732883" lon="22.392008733004332">
        <ele>351.5</ele>
        <time>2014-10-11T08:22:33Z</time>
      </trkpt>
      <trkpt lat="49.435034701600671" lon="22.392380805686116">
        <ele>352.94</ele>
        <time>2014-10-11T08:26:21Z</time>
      </trkpt>
      <trkpt lat="49.434950714930892" lon="22.392725637182593">
        <ele>353.42000000000002</ele>
        <time>2014-10-11T08:27:35Z</time>
      </trkpt>
      <trkpt lat="49.434930179268122" lon="22.392842900007963">
        <ele>353.89999999999998</ele>
        <time>2014-10-11T08:29:19Z</time>
      </trkpt>
      <trkpt lat="49.434868153184652" lon="22.392993355169892">
        <ele>354.38</ele>
        <time>2014-10-11T08:29:26Z</time>
      </trkpt>
      <trkpt lat="49.434738904237747" lon="22.393406415358186">
        <ele>354.38</ele>
        <time>2014-10-11T08:29:36Z</time>
      </trkpt>
      <trkpt lat="49.434510245919228" lon="22.394001195207238">
        <ele>354.86000000000001</ele>
        <time>2014-10-11T08:29:49Z</time>
      </trkpt>
      <trkpt lat="49.434220064431429" lon="22.394774593412876">
        <ele>354.86000000000001</ele>
        <time>2014-10-11T08:34:51Z</time>
      </trkpt>
      <trkpt lat="49.434075811877847" lon="22.395075336098671">
        <ele>355.33999999999997</ele>
        <time>2014-10-11T08:35:02Z</time>
      </trkpt>
      <trkpt lat="49.433885626494884" lon="22.39539971575141">
        <ele>355.82999999999998</ele>
        <time>2014-10-11T08:35:10Z</time>
      </trkpt>
      <trkpt lat="49.433656968176365" lon="22.395806573331356">
        <ele>355.82999999999998</ele>
        <time>2014-10-11T08:35:20Z</time>
      </trkpt>
      <trkpt lat="49.433450186625123" lon="22.396183926612139">
        <ele>355.33999999999997</ele>
        <time>2014-10-11T08:35:30Z</time>
      </trkpt>
      <trkpt lat="49.432970322668552" lon="22.397128064185381">
        <ele>354.86000000000001</ele>
        <time>2014-10-11T08:41:08Z</time>
      </trkpt>
      <trkpt lat="49.432790447026491" lon="22.397444983944297">
        <ele>354.38</ele>
        <time>2014-10-11T08:41:16Z</time>
      </trkpt>
      <trkpt lat="49.432567739859223" lon="22.397855026647449">
        <ele>353.42000000000002</ele>
        <time>2014-10-11T08:41:26Z</time>
      </trkpt>
      <trkpt lat="49.432429438456893" lon="22.398159625008702">
        <ele>353.42000000000002</ele>
        <time>2014-10-11T08:41:34Z</time>
      </trkpt>
      <trkpt lat="49.432294741272926" lon="22.398474616929889">
        <ele>352.94</ele>
        <time>2014-10-11T08:41:42Z</time>
      </trkpt>
      <trkpt lat="49.432262470945716" lon="22.398547539487481">
        <ele>352.45999999999998</ele>
        <time>2014-10-11T08:42:34Z</time>
      </trkpt>
      <trkpt lat="49.432246712967753" lon="22.398570505902171">
        <ele>352.45999999999998</ele>
        <time>2014-10-11T08:43:13Z</time>
      </trkpt>
      <trkpt lat="49.432173455134034" lon="22.398736635223031">
        <ele>352.45999999999998</ele>
        <time>2014-10-11T08:43:22Z</time>
      </trkpt>
      <trkpt lat="49.432089468464255" lon="22.398980297148228">
        <ele>351.98000000000002</ele>
        <time>2014-10-11T08:44:41Z</time>
      </trkpt>
      <trkpt lat="49.431973965838552" lon="22.399370223283768">
        <ele>352.45999999999998</ele>
        <time>2014-10-11T08:44:50Z</time>
      </trkpt>
      <trkpt lat="49.431970277801156" lon="22.399815721437335">
        <ele>351.98000000000002</ele>
        <time>2014-10-11T08:45:00Z</time>
      </trkpt>
      <trkpt lat="49.431978072971106" lon="22.399872299283743">
        <ele>351.01999999999998</ele>
        <time>2014-10-11T08:46:11Z</time>
      </trkpt>
      <trkpt lat="49.431968769058585" lon="22.39993910305202">
        <ele>351.5</ele>
        <time>2014-10-11T08:46:24Z</time>
      </trkpt>
      <trkpt lat="49.431977067142725" lon="22.400076482445002">
        <ele>351.5</ele>
        <time>2014-10-11T08:46:31Z</time>
      </trkpt>
      <trkpt lat="49.43198561668396" lon="22.400273960083723">
        <ele>351.5</ele>
        <time>2014-10-11T08:46:57Z</time>
      </trkpt>
      <trkpt lat="49.431987460702658" lon="22.400410166010261">
        <ele>352.94</ele>
        <time>2014-10-11T08:48:14Z</time>
      </trkpt>
      <trkpt lat="49.431995088234544" lon="22.400651564821601">
        <ele>352.45999999999998</ele>
        <time>2014-10-11T08:48:26Z</time>
      </trkpt>
      <trkpt lat="49.431971702724695" lon="22.400764469057322">
        <ele>352.45999999999998</ele>
        <time>2014-10-11T08:49:58Z</time>
      </trkpt>
      <trkpt lat="49.431989220902324" lon="22.4010263197124">
        <ele>352.45999999999998</ele>
        <time>2014-10-11T08:50:11Z</time>
      </trkpt>
      <trkpt lat="49.432009421288967" lon="22.401496712118387">
        <ele>352.94</ele>
        <time>2014-10-11T08:59:19Z</time>
      </trkpt>
      <trkpt lat="49.432072285562754" lon="22.401651022955775">
        <ele>352.94</ele>
        <time>2014-10-11T08:59:29Z</time>
      </trkpt>
      <trkpt lat="49.432083014398813" lon="22.401660913601518">
        <ele>353.42000000000002</ele>
        <time>2014-10-11T08:59:31Z</time>
      </trkpt>
      <trkpt lat="49.432099610567093" lon="22.401652196422219">
        <ele>352.94</ele>
        <time>2014-10-11T08:59:38Z</time>
      </trkpt>
      <trkpt lat="49.432174041867256" lon="22.401626296341419">
        <ele>352.94</ele>
        <time>2014-10-11T09:00:20Z</time>
      </trkpt>
      <trkpt lat="49.432263560593128" lon="22.401580195873976">
        <ele>352.45999999999998</ele>
        <time>2014-10-11T09:00:30Z</time>
      </trkpt>
      <trkpt lat="49.432583078742027" lon="22.401581956073642">
        <ele>355.82999999999998</ele>
        <time>2014-10-11T09:12:14Z</time>
      </trkpt>
      <trkpt lat="49.432587353512645" lon="22.40157357417047">
        <ele>356.31</ele>
        <time>2014-10-11T09:14:16Z</time>
      </trkpt>
      <trkpt lat="49.432617863640189" lon="22.401569383218884">
        <ele>356.79000000000002</ele>
        <time>2014-10-11T09:14:40Z</time>
      </trkpt>
      <trkpt lat="49.432633621618152" lon="22.40157307125628">
        <ele>356.31</ele>
        <time>2014-10-11T09:14:42Z</time>
      </trkpt>
      <trkpt lat="49.432671759277582" lon="22.401584638282657">
        <ele>355.82999999999998</ele>
        <time>2014-10-11T09:14:44Z</time>
      </trkpt>
      <trkpt lat="49.432850293815136" lon="22.401505010202527">
        <ele>355.33999999999997</ele>
        <time>2014-10-11T09:14:50Z</time>
      </trkpt>
      <trkpt lat="49.433008879423141" lon="22.40142747759819">
        <ele>353.89999999999998</ele>
        <time>2014-10-11T09:14:56Z</time>
      </trkpt>
      <trkpt lat="49.432994881644845" lon="22.401424208655953">
        <ele>353.89999999999998</ele>
        <time>2014-10-11T09:15:08Z</time>
      </trkpt>
      <trkpt lat="49.433197556063533" lon="22.401207452639937">
        <ele>352.94</ele>
        <time>2014-10-11T09:16:52Z</time>
      </trkpt>
      <trkpt lat="49.433455718681216" lon="22.401041574776173">
        <ele>352.94</ele>
        <time>2014-10-11T09:17:01Z</time>
      </trkpt>
      <trkpt lat="49.433599216863513" lon="22.400872595608234">
        <ele>352.94</ele>
        <time>2014-10-11T09:17:08Z</time>
      </trkpt>
      <trkpt lat="49.433897528797388" lon="22.40063639357686">
        <ele>353.42000000000002</ele>
        <time>2014-10-11T09:19:23Z</time>
      </trkpt>
      <trkpt lat="49.434036081656814" lon="22.400500020012259">
        <ele>353.42000000000002</ele>
        <time>2014-10-11T09:19:31Z</time>
      </trkpt>
      <trkpt lat="49.434041194617748" lon="22.400440257042646">
        <ele>353.89999999999998</ele>
        <time>2014-10-11T09:19:38Z</time>
      </trkpt>
      <trkpt lat="49.434043876826763" lon="22.400430366396904">
        <ele>353.42000000000002</ele>
        <time>2014-10-11T09:19:53Z</time>
      </trkpt>
      <trkpt lat="49.434127947315574" lon="22.400298435240984">
        <ele>352.94</ele>
        <time>2014-10-11T09:21:25Z</time>
      </trkpt>
      <trkpt lat="49.434125265106559" lon="22.400284772738814">
        <ele>352.94</ele>
        <time>2014-10-11T09:25:28Z</time>
      </trkpt>
      <trkpt lat="49.434182094410062" lon="22.40015460178256">
        <ele>352.94</ele>
        <time>2014-10-11T09:25:46Z</time>
      </trkpt>
      <trkpt lat="49.43425040692091" lon="22.399946143850684">
        <ele>352.45999999999998</ele>
        <time>2014-10-11T09:25:54Z</time>
      </trkpt>
      <trkpt lat="49.434360042214394" lon="22.399771381169558">
        <ele>352.45999999999998</ele>
        <time>2014-10-11T09:26:02Z</time>
      </trkpt>
      <trkpt lat="49.434365071356297" lon="22.399746654555202">
        <ele>352.45999999999998</ele>
        <time>2014-10-11T09:26:10Z</time>
      </trkpt>
      <trkpt lat="49.434366496279836" lon="22.399742547422647">
        <ele>351.98000000000002</ele>
        <time>2014-10-11T09:26:32Z</time>
      </trkpt>
      <trkpt lat="49.434365155175328" lon="22.399753695353866">
        <ele>351.98000000000002</ele>
        <time>2014-10-11T09:26:54Z</time>
      </trkpt>
      <trkpt lat="49.434358701109886" lon="22.399765262380242">
        <ele>351.98000000000002</ele>
        <time>2014-10-11T09:27:15Z</time>
      </trkpt>
      <trkpt lat="49.434376386925578" lon="22.399707930162549">
        <ele>351.98000000000002</ele>
        <time>2014-10-11T09:27:32Z</time>
      </trkpt>
      <trkpt lat="49.434441765770316" lon="22.399569461122155">
        <ele>351.98000000000002</ele>
        <time>2014-10-11T09:27:38Z</time>
      </trkpt>
      <trkpt lat="49.434555424377322" lon="22.399296211078763">
        <ele>352.45999999999998</ele>
        <time>2014-10-11T09:27:47Z</time>
      </trkpt>
      <trkpt lat="49.434646032750607" lon="22.399236783385277">
        <ele>353.42000000000002</ele>
        <time>2014-10-11T09:27:53Z</time>
      </trkpt>
      <trkpt lat="49.434986086562276" lon="22.399132261052728">
        <ele>354.86000000000001</ele>
        <time>2014-10-11T09:33:12Z</time>
      </trkpt>
      <trkpt lat="49.435129584744573" lon="22.399010891094804">
        <ele>355.33999999999997</ele>
        <time>2014-10-11T09:33:25Z</time>
      </trkpt>
      <trkpt lat="49.435171158984303" lon="22.398940315470099">
        <ele>355.33999999999997</ele>
        <time>2014-10-11T09:34:26Z</time>
      </trkpt>
      <trkpt lat="49.435295043513179" lon="22.398714004084468">
        <ele>355.33999999999997</ele>
        <time>2014-10-11T09:34:40Z</time>
      </trkpt>
      <trkpt lat="49.435498975217342" lon="22.398588443174958">
        <ele>355.33999999999997</ele>
        <time>2014-10-11T09:38:16Z</time>
      </trkpt>
      <trkpt lat="49.435679353773594" lon="22.398494984954596">
        <ele>359.19</ele>
        <time>2014-10-11T09:41:30Z</time>
      </trkpt>
      <trkpt lat="49.43574414588511" lon="22.398412674665451">
        <ele>360.63</ele>
        <time>2014-10-11T09:56:57Z</time>
      </trkpt>
      <trkpt lat="49.435851769521832" lon="22.398379314690828">
        <ele>360.63</ele>
        <time>2014-10-11T09:58:00Z</time>
      </trkpt>
      <trkpt lat="49.435896025970578" lon="22.398295998573303">
        <ele>361.58999999999997</ele>
        <time>2014-10-11T09:58:07Z</time>
      </trkpt>
      <trkpt lat="49.435910526663065" lon="22.398262554779649">
        <ele>361.58999999999997</ele>
        <time>2014-10-11T09:58:09Z</time>
      </trkpt>
      <trkpt lat="49.435936091467738" lon="22.398174460977316">
        <ele>361.58999999999997</ele>
        <time>2014-10-11T09:58:39Z</time>
      </trkpt>
      <trkpt lat="49.43595570512116" lon="22.398129282519221">
        <ele>361.58999999999997</ele>
        <time>2014-10-11T10:00:22Z</time>
      </trkpt>
      <trkpt lat="49.436061987653375" lon="22.398085864260793">
        <ele>362.06999999999999</ele>
        <time>2014-10-11T10:00:31Z</time>
      </trkpt>
      <trkpt lat="49.436147399246693" lon="22.398027274757624">
        <ele>363.04000000000002</ele>
        <time>2014-10-11T10:00:38Z</time>
      </trkpt>
      <trkpt lat="49.436234068125486" lon="22.397871538996696">
        <ele>363.51999999999998</ele>
        <time>2014-10-11T10:00:57Z</time>
      </trkpt>
      <trkpt lat="49.436373207718134" lon="22.397747570648789">
        <ele>364.48000000000002</ele>
        <time>2014-10-11T10:02:20Z</time>
      </trkpt>
      <trkpt lat="49.436446633189917" lon="22.397705242037773">
        <ele>365.44</ele>
        <time>2014-10-11T10:02:27Z</time>
      </trkpt>
      <trkpt lat="49.436568757519126" lon="22.397692753002048">
        <ele>367.36000000000001</ele>
        <time>2014-10-11T10:04:00Z</time>
      </trkpt>
      <trkpt lat="49.436643775552511" lon="22.397639527916908">
        <ele>367.83999999999997</ele>
        <time>2014-10-11T10:04:07Z</time>
      </trkpt>
      <trkpt lat="49.436747208237648" lon="22.39760591648519">
        <ele>369.27999999999997</ele>
        <time>2014-10-11T10:04:17Z</time>
      </trkpt>
      <trkpt lat="49.436824154108763" lon="22.397601557895541">
        <ele>370.73000000000002</ele>
        <time>2014-10-11T10:04:26Z</time>
      </trkpt>
      <trkpt lat="49.436891796067357" lon="22.397579681128263">
        <ele>372.17000000000002</ele>
        <time>2014-10-11T10:04:35Z</time>
      </trkpt>
      <trkpt lat="49.436992043629289" lon="22.397526958957314">
        <ele>373.61000000000001</ele>
        <time>2014-10-11T10:04:45Z</time>
      </trkpt>
      <trkpt lat="49.437102684751153" lon="22.397781098261476">
        <ele>375.05000000000001</ele>
        <time>2014-10-11T10:09:22Z</time>
      </trkpt>
      <trkpt lat="49.43709765560925" lon="22.398105813190341">
        <ele>375.05000000000001</ele>
        <time>2014-10-11T10:09:30Z</time>
      </trkpt>
      <trkpt lat="49.437056835740805" lon="22.398380823433399">
        <ele>376.00999999999999</ele>
        <time>2014-10-11T10:09:38Z</time>
      </trkpt>
      <trkpt lat="49.437033701688051" lon="22.398438071832061">
        <ele>375.52999999999997</ele>
        <time>2014-10-11T10:10:14Z</time>
      </trkpt>
      <trkpt lat="49.437024733051658" lon="22.398506551980972">
        <ele>375.05000000000001</ele>
        <time>2014-10-11T10:14:06Z</time>
      </trkpt>
      <trkpt lat="49.436973603442311" lon="22.398670082911849">
        <ele>375.52999999999997</ele>
        <time>2014-10-11T10:14:16Z</time>
      </trkpt>
      <trkpt lat="49.436866566538811" lon="22.398869656026363">
        <ele>376.49000000000001</ele>
        <time>2014-10-11T10:14:29Z</time>
      </trkpt>
      <trkpt lat="49.436782831326127" lon="22.399060260504484">
        <ele>377.44999999999999</ele>
        <time>2014-10-11T10:14:42Z</time>
      </trkpt>
      <trkpt lat="49.436710244044662" lon="22.399203926324844">
        <ele>377.44999999999999</ele>
        <time>2014-10-11T10:14:53Z</time>
      </trkpt>
      <trkpt lat="49.436479657888412" lon="22.399467285722494">
        <ele>379.38</ele>
        <time>2014-10-11T10:18:16Z</time>
      </trkpt>
      <trkpt lat="49.436361473053694" lon="22.399655124172568">
        <ele>380.33999999999997</ele>
        <time>2014-10-11T10:18:25Z</time>
      </trkpt>
      <trkpt lat="49.436329621821642" lon="22.399709606543183">
        <ele>381.30000000000001</ele>
        <time>2014-10-11T10:18:28Z</time>
      </trkpt>
      <trkpt lat="49.436319060623646" lon="22.399727962911129">
        <ele>381.77999999999997</ele>
        <time>2014-10-11T10:18:29Z</time>
      </trkpt>
      <trkpt lat="49.436304643750191" lon="22.399748666211963">
        <ele>381.77999999999997</ele>
        <time>2014-10-11T10:18:30Z</time>
      </trkpt>
      <trkpt lat="49.436291567981243" lon="22.399768279865384">
        <ele>381.77999999999997</ele>
        <time>2014-10-11T10:18:31Z</time>
      </trkpt>
      <trkpt lat="49.43627723492682" lon="22.399787725880742">
        <ele>381.77999999999997</ele>
        <time>2014-10-11T10:18:32Z</time>
      </trkpt>
      <trkpt lat="49.43626256659627" lon="22.399809267371893">
        <ele>382.25999999999999</ele>
        <time>2014-10-11T10:18:33Z</time>
      </trkpt>
      <trkpt lat="49.436201127246022" lon="22.39988386631012">
        <ele>382.74000000000001</ele>
        <time>2014-10-11T10:18:37Z</time>
      </trkpt>
      <trkpt lat="49.436150249093771" lon="22.399984281510115">
        <ele>382.74000000000001</ele>
        <time>2014-10-11T10:20:14Z</time>
      </trkpt>
      <trkpt lat="49.436003314331174" lon="22.40025426261127">
        <ele>383.69999999999999</ele>
        <time>2014-10-11T10:20:24Z</time>
      </trkpt>
      <trkpt lat="49.435837771743536" lon="22.400637734681368">
        <ele>383.69999999999999</ele>
        <time>2014-10-11T10:20:35Z</time>
      </trkpt>
      <trkpt lat="49.435694357380271" lon="22.400968316942453">
        <ele>384.18000000000001</ele>
        <time>2014-10-11T10:20:45Z</time>
      </trkpt>
      <trkpt lat="49.435543902218342" lon="22.401277273893356">
        <ele>384.66000000000003</ele>
        <time>2014-10-11T10:20:55Z</time>
      </trkpt>
      <trkpt lat="49.435513140633702" lon="22.401347765699029">
        <ele>384.66000000000003</ele>
        <time>2014-10-11T10:21:16Z</time>
      </trkpt>
      <trkpt lat="49.435491934418678" lon="22.401408115401864">
        <ele>384.66000000000003</ele>
        <time>2014-10-11T10:24:35Z</time>
      </trkpt>
      <trkpt lat="49.435483552515507" lon="22.401427561417222">
        <ele>384.66000000000003</ele>
        <time>2014-10-11T10:24:36Z</time>
      </trkpt>
      <trkpt lat="49.435357907786965" lon="22.401628810912371">
        <ele>385.14999999999998</ele>
        <time>2014-10-11T10:24:44Z</time>
      </trkpt>
      <trkpt lat="49.435207284986973" lon="22.401826372370124">
        <ele>385.63</ele>
        <time>2014-10-11T10:24:53Z</time>
      </trkpt>
      <trkpt lat="49.435115586966276" lon="22.401910861954093">
        <ele>386.58999999999997</ele>
        <time>2014-10-11T10:26:35Z</time>
      </trkpt>
      <trkpt lat="49.434983739629388" lon="22.402045056223869">
        <ele>387.55000000000001</ele>
        <time>2014-10-11T10:26:44Z</time>
      </trkpt>
      <trkpt lat="49.434845857322216" lon="22.402209257707">
        <ele>388.02999999999997</ele>
        <time>2014-10-11T10:26:54Z</time>
      </trkpt>
      <trkpt lat="49.434751896187663" lon="22.402326604351401">
        <ele>389.47000000000003</ele>
        <time>2014-10-11T10:27:02Z</time>
      </trkpt>
      <trkpt lat="49.4347258284688" lon="22.402331968769431">
        <ele>388.99000000000001</ele>
        <time>2014-10-11T10:28:42Z</time>
      </trkpt>
      <trkpt lat="49.434684924781322" lon="22.40239349193871">
        <ele>389.47000000000003</ele>
        <time>2014-10-11T10:28:51Z</time>
      </trkpt>
      <trkpt lat="49.434594819322228" lon="22.402510503306985">
        <ele>390.91000000000003</ele>
        <time>2014-10-11T10:29:00Z</time>
      </trkpt>
      <trkpt lat="49.434510916471481" lon="22.402580743655562">
        <ele>392.36000000000001</ele>
        <time>2014-10-11T10:29:07Z</time>
      </trkpt>
      <trkpt lat="49.434426845982671" lon="22.402646541595459">
        <ele>393.80000000000001</ele>
        <time>2014-10-11T10:29:14Z</time>
      </trkpt>
      <trkpt lat="49.434329951182008" lon="22.402694569900632">
        <ele>395.24000000000001</ele>
        <time>2014-10-11T10:29:23Z</time>
      </trkpt>
      <trkpt lat="49.43424990400672" lon="22.402727175503969">
        <ele>396.68000000000001</ele>
        <time>2014-10-11T10:29:31Z</time>
      </trkpt>
      <trkpt lat="49.434154350310564" lon="22.402755338698626">
        <ele>397.16000000000003</ele>
        <time>2014-10-11T10:33:04Z</time>
      </trkpt>
      <trkpt lat="49.434056533500552" lon="22.402732372283936">
        <ele>398.12</ele>
        <time>2014-10-11T10:33:13Z</time>
      </trkpt>
      <trkpt lat="49.43394647911191" lon="22.402761373668909">
        <ele>400.05000000000001</ele>
        <time>2014-10-11T10:33:22Z</time>
      </trkpt>
      <trkpt lat="49.433865677565336" lon="22.402785932645202">
        <ele>401.49000000000001</ele>
        <time>2014-10-11T10:33:30Z</time>
      </trkpt>
      <trkpt lat="49.433842711150646" lon="22.402793057262897">
        <ele>402.44999999999999</ele>
        <time>2014-10-11T10:33:32Z</time>
      </trkpt>
      <trkpt lat="49.433830725029111" lon="22.402798840776086">
        <ele>402.44999999999999</ele>
        <time>2014-10-11T10:33:33Z</time>
      </trkpt>
      <trkpt lat="49.433819325640798" lon="22.402807138860226">
        <ele>402.44999999999999</ele>
        <time>2014-10-11T10:33:34Z</time>
      </trkpt>
      <trkpt lat="49.433809518814087" lon="22.402816442772746">
        <ele>402.44999999999999</ele>
        <time>2014-10-11T10:33:35Z</time>
      </trkpt>
      <trkpt lat="49.433799376711249" lon="22.402824321761727">
        <ele>402.44999999999999</ele>
        <time>2014-10-11T10:33:36Z</time>
      </trkpt>
      <trkpt lat="49.433788815513253" lon="22.402833793312311">
        <ele>402.93000000000001</ele>
        <time>2014-10-11T10:33:37Z</time>
      </trkpt>
      <trkpt lat="49.433722514659166" lon="22.402893807739019">
        <ele>403.88999999999999</ele>
        <time>2014-10-11T10:34:31Z</time>
      </trkpt>
      <trkpt lat="49.433699296787381" lon="22.402893975377083">
        <ele>403.41000000000003</ele>
        <time>2014-10-11T10:35:12Z</time>
      </trkpt>
      <trkpt lat="49.433643640950322" lon="22.402888275682926">
        <ele>403.88999999999999</ele>
        <time>2014-10-11T10:36:34Z</time>
      </trkpt>
      <trkpt lat="49.433582704514265" lon="22.402876457199454">
        <ele>404.37</ele>
        <time>2014-10-11T10:38:13Z</time>
      </trkpt>
      <trkpt lat="49.433572730049491" lon="22.402881737798452">
        <ele>403.88999999999999</ele>
        <time>2014-10-11T10:38:14Z</time>
      </trkpt>
      <trkpt lat="49.433561498299241" lon="22.402888359501958">
        <ele>404.37</ele>
        <time>2014-10-11T10:38:15Z</time>
      </trkpt>
      <trkpt lat="49.433551942929626" lon="22.40288995206356">
        <ele>404.85000000000002</ele>
        <time>2014-10-11T10:38:16Z</time>
      </trkpt>
      <trkpt lat="49.433543561026454" lon="22.40289431065321">
        <ele>404.85000000000002</ele>
        <time>2014-10-11T10:38:17Z</time>
      </trkpt>
      <trkpt lat="49.433533335104585" lon="22.40290311165154">
        <ele>404.85000000000002</ele>
        <time>2014-10-11T10:38:18Z</time>
      </trkpt>
      <trkpt lat="49.433523193001747" lon="22.402912750840187">
        <ele>404.85000000000002</ele>
        <time>2014-10-11T10:38:19Z</time>
      </trkpt>
      <trkpt lat="49.433513637632132" lon="22.4029172770679">
        <ele>404.85000000000002</ele>
        <time>2014-10-11T10:38:20Z</time>
      </trkpt>
      <trkpt lat="49.433429399505258" lon="22.402919121086597">
        <ele>405.81</ele>
        <time>2014-10-11T10:40:08Z</time>
      </trkpt>
      <trkpt lat="49.433361338451505" lon="22.402939824387431">
        <ele>405.81</ele>
        <time>2014-10-11T10:40:18Z</time>
      </trkpt>
      <trkpt lat="49.433230748400092" lon="22.402959521859884">
        <ele>406.29000000000002</ele>
        <time>2014-10-11T10:40:26Z</time>
      </trkpt>
      <trkpt lat="49.433090183883905" lon="22.4029984138906">
        <ele>406.76999999999998</ele>
        <time>2014-10-11T10:40:35Z</time>
      </trkpt>
      <trkpt lat="49.432966215535998" lon="22.403052058070898">
        <ele>408.22000000000003</ele>
        <time>2014-10-11T10:40:44Z</time>
      </trkpt>
      <trkpt lat="49.432864794507623" lon="22.403096063062549">
        <ele>408.22000000000003</ele>
        <time>2014-10-11T10:40:52Z</time>
      </trkpt>
      <trkpt lat="49.432802852243185" lon="22.403120789676905">
        <ele>408.22000000000003</ele>
        <time>2014-10-11T10:40:58Z</time>
      </trkpt>
      <trkpt lat="49.432792458683252" lon="22.403124812990427">
        <ele>408.69999999999999</ele>
        <time>2014-10-11T10:40:59Z</time>
      </trkpt>
      <trkpt lat="49.432779047638178" lon="22.403127159923315">
        <ele>408.69999999999999</ele>
        <time>2014-10-11T10:41:00Z</time>
      </trkpt>
      <trkpt lat="49.432765301316977" lon="22.403129087761045">
        <ele>408.69999999999999</ele>
        <time>2014-10-11T10:41:01Z</time>
      </trkpt>
      <trkpt lat="49.432752896100283" lon="22.403132943436503">
        <ele>408.69999999999999</ele>
        <time>2014-10-11T10:41:02Z</time>
      </trkpt>
      <trkpt lat="49.432741161435843" lon="22.403140319511294">
        <ele>409.18000000000001</ele>
        <time>2014-10-11T10:41:03Z</time>
      </trkpt>
      <trkpt lat="49.432727415114641" lon="22.403145181015134">
        <ele>409.18000000000001</ele>
        <time>2014-10-11T10:41:04Z</time>
      </trkpt>
      <trkpt lat="49.432713752612472" lon="22.40314794704318">
        <ele>409.18000000000001</ele>
        <time>2014-10-11T10:41:05Z</time>
      </trkpt>
      <trkpt lat="49.432699671015143" lon="22.403151551261544">
        <ele>409.18000000000001</ele>
        <time>2014-10-11T10:41:06Z</time>
      </trkpt>
      <trkpt lat="49.432685170322657" lon="22.403155993670225">
        <ele>409.66000000000003</ele>
        <time>2014-10-11T10:41:07Z</time>
      </trkpt>
      <trkpt lat="49.432522561401129" lon="22.403204189613461">
        <ele>410.13999999999999</ele>
        <time>2014-10-11T10:41:17Z</time>
      </trkpt>
      <trkpt lat="49.43234670907259" lon="22.403279207646847">
        <ele>410.62</ele>
        <time>2014-10-11T10:41:28Z</time>
      </trkpt>
      <trkpt lat="49.432314522564411" lon="22.403291193768382">
        <ele>411.10000000000002</ele>
        <time>2014-10-11T10:41:31Z</time>
      </trkpt>
      <trkpt lat="49.432302536442876" lon="22.403292870149016">
        <ele>411.57999999999998</ele>
        <time>2014-10-11T10:41:32Z</time>
      </trkpt>
      <trkpt lat="49.43221234716475" lon="22.403324637562037">
        <ele>411.57999999999998</ele>
        <time>2014-10-11T10:41:39Z</time>
      </trkpt>
      <trkpt lat="49.432201702147722" lon="22.40332187153399">
        <ele>411.57999999999998</ele>
        <time>2014-10-11T10:41:40Z</time>
      </trkpt>
      <trkpt lat="49.432176137343049" lon="22.403314579278231">
        <ele>412.06</ele>
        <time>2014-10-11T10:41:48Z</time>
      </trkpt>
      <trkpt lat="49.431992154568434" lon="22.403280716389418">
        <ele>416.38999999999999</ele>
        <time>2014-10-11T10:50:54Z</time>
      </trkpt>
      <trkpt lat="49.431988466531038" lon="22.403291193768382">
        <ele>416.38999999999999</ele>
        <time>2014-10-11T10:50:55Z</time>
      </trkpt>
      <trkpt lat="49.431993160396814" lon="22.403462771326303">
        <ele>416.38999999999999</ele>
        <time>2014-10-11T10:51:04Z</time>
      </trkpt>
      <trkpt lat="49.431993076577783" lon="22.403512224555016">
        <ele>416.87</ele>
        <time>2014-10-11T10:51:12Z</time>
      </trkpt>
      <trkpt lat="49.432008750736713" lon="22.403505016118288">
        <ele>416.87</ele>
        <time>2014-10-11T10:51:24Z</time>
      </trkpt>
      <trkpt lat="49.431989556178451" lon="22.403639294207096">
        <ele>416.87</ele>
        <time>2014-10-11T10:52:47Z</time>
      </trkpt>
      <trkpt lat="49.431977486237884" lon="22.4037547968328">
        <ele>416.38999999999999</ele>
        <time>2014-10-11T10:52:54Z</time>
      </trkpt>
      <trkpt lat="49.431979330256581" lon="22.403760496526957">
        <ele>416.87</ele>
        <time>2014-10-11T10:55:18Z</time>
      </trkpt>
      <trkpt lat="49.431984946131706" lon="22.403908018022776">
        <ele>415.91000000000003</ele>
        <time>2014-10-11T10:55:47Z</time>
      </trkpt>
      <trkpt lat="49.431921746581793" lon="22.404181770980358">
        <ele>413.5</ele>
        <time>2014-10-11T10:55:55Z</time>
      </trkpt>
      <trkpt lat="49.431833233684301" lon="22.404406908899546">
        <ele>412.54000000000002</ele>
        <time>2014-10-11T10:56:01Z</time>
      </trkpt>
      <trkpt lat="49.431766094639897" lon="22.404565997421741">
        <ele>411.10000000000002</ele>
        <time>2014-10-11T10:56:08Z</time>
      </trkpt>
      <trkpt lat="49.431703817099333" lon="22.404680158942938">
        <ele>412.06</ele>
        <time>2014-10-11T11:00:12Z</time>
      </trkpt>
      <trkpt lat="49.431639024987817" lon="22.404743945226073">
        <ele>412.06</ele>
        <time>2014-10-11T11:01:25Z</time>
      </trkpt>
      <trkpt lat="49.431588901206851" lon="22.404813095927238">
        <ele>411.57999999999998</ele>
        <time>2014-10-11T11:01:43Z</time>
      </trkpt>
      <trkpt lat="49.43158688955009" lon="22.404869338497519">
        <ele>411.10000000000002</ele>
        <time>2014-10-11T11:01:53Z</time>
      </trkpt>
      <trkpt lat="49.431578759104013" lon="22.404973693192005">
        <ele>407.74000000000001</ele>
        <time>2014-10-11T11:02:03Z</time>
      </trkpt>
      <trkpt lat="49.431546237319708" lon="22.405059020966291">
        <ele>404.37</ele>
        <time>2014-10-11T11:02:12Z</time>
      </trkpt>
      <trkpt lat="49.431505165994167" lon="22.40504871122539">
        <ele>402.44999999999999</ele>
        <time>2014-10-11T11:02:44Z</time>
      </trkpt>
      <trkpt lat="49.431469962000847" lon="22.405121047049761">
        <ele>401.97000000000003</ele>
        <time>2014-10-11T11:03:18Z</time>
      </trkpt>
      <trkpt lat="49.431457472965121" lon="22.405164130032063">
        <ele>400.52999999999997</ele>
        <time>2014-10-11T11:03:22Z</time>
      </trkpt>
      <trkpt lat="49.431431153789163" lon="22.405242752283812">
        <ele>398.60000000000002</ele>
        <time>2014-10-11T11:03:29Z</time>
      </trkpt>
      <trkpt lat="49.431410953402519" lon="22.405341239646077">
        <ele>395.72000000000003</ele>
        <time>2014-10-11T11:06:17Z</time>
      </trkpt>
      <trkpt lat="49.431389411911368" lon="22.405394548550248">
        <ele>394.75999999999999</ele>
        <time>2014-10-11T11:06:29Z</time>
      </trkpt>
      <trkpt lat="49.431374575942755" lon="22.405456239357591">
        <ele>393.80000000000001</ele>
        <time>2014-10-11T11:06:34Z</time>
      </trkpt>
      <trkpt lat="49.431296875700355" lon="22.405530335381627">
        <ele>390.91000000000003</ele>
        <time>2014-10-11T11:06:45Z</time>
      </trkpt>
      <trkpt lat="49.431233005598187" lon="22.40558423101902">
        <ele>388.50999999999999</ele>
        <time>2014-10-11T11:06:54Z</time>
      </trkpt>
      <trkpt lat="49.431191012263298" lon="22.405666708946228">
        <ele>385.14999999999998</ele>
        <time>2014-10-11T11:07:03Z</time>
      </trkpt>
      <trkpt lat="49.431134602054954" lon="22.40574499592185">
        <ele>383.22000000000003</ele>
        <time>2014-10-11T11:07:11Z</time>
      </trkpt>
      <trkpt lat="49.431061847135425" lon="22.405872317031026">
        <ele>380.33999999999997</ele>
        <time>2014-10-11T11:07:21Z</time>
      </trkpt>
      <trkpt lat="49.431052878499031" lon="22.405886985361576">
        <ele>379.86000000000001</ele>
        <time>2014-10-11T11:07:22Z</time>
      </trkpt>
      <trkpt lat="49.430913906544447" lon="22.406033417209983">
        <ele>380.81999999999999</ele>
        <time>2014-10-11T11:13:26Z</time>
      </trkpt>
      <trkpt lat="49.430784489959478" lon="22.406064430251718">
        <ele>380.81999999999999</ele>
        <time>2014-10-11T11:13:35Z</time>
      </trkpt>
      <trkpt lat="49.4307591766119" lon="22.406079517677426">
        <ele>380.81999999999999</ele>
        <time>2014-10-11T11:13:37Z</time>
      </trkpt>
      <trkpt lat="49.430642165243626" lon="22.406183704733849">
        <ele>381.30000000000001</ele>
        <time>2014-10-11T11:13:47Z</time>
      </trkpt>
      <trkpt lat="49.430562537163496" lon="22.406276408582926">
        <ele>382.25999999999999</ele>
        <time>2014-10-11T11:13:56Z</time>
      </trkpt>
      <trkpt lat="49.430510401725769" lon="22.406285125762224">
        <ele>381.30000000000001</ele>
        <time>2014-10-11T11:16:51Z</time>
      </trkpt>
      <trkpt lat="49.430399173870683" lon="22.406313959509134">
        <ele>380.81999999999999</ele>
        <time>2014-10-11T11:18:06Z</time>
      </trkpt>
      <trkpt lat="49.430387187749147" lon="22.40633231587708">
        <ele>381.30000000000001</ele>
        <time>2014-10-11T11:18:21Z</time>
      </trkpt>
      <trkpt lat="49.430377464741468" lon="22.406352432444692">
        <ele>381.30000000000001</ele>
        <time>2014-10-11T11:18:36Z</time>
      </trkpt>
      <trkpt lat="49.430386098101735" lon="22.40637581795454">
        <ele>381.30000000000001</ele>
        <time>2014-10-11T11:18:48Z</time>
      </trkpt>
      <trkpt lat="49.430452398955822" lon="22.406520657241344">
        <ele>381.30000000000001</ele>
        <time>2014-10-11T11:19:00Z</time>
      </trkpt>
      <trkpt lat="49.430571338161826" lon="22.406951235607266">
        <ele>380.81999999999999</ele>
        <time>2014-10-11T11:21:58Z</time>
      </trkpt>
      <trkpt lat="49.430665718391538" lon="22.407286176458001">
        <ele>380.33999999999997</ele>
        <time>2014-10-11T11:22:34Z</time>
      </trkpt>
      <trkpt lat="49.430663120001554" lon="22.407295061275363">
        <ele>380.33999999999997</ele>
        <time>2014-10-11T11:22:53Z</time>
      </trkpt>
      <trkpt lat="49.430683488026261" lon="22.407337054610252">
        <ele>380.33999999999997</ele>
        <time>2014-10-11T11:22:56Z</time>
      </trkpt>
      <trkpt lat="49.430697904899716" lon="22.407364714890718">
        <ele>380.33999999999997</ele>
        <time>2014-10-11T11:22:57Z</time>
      </trkpt>
      <trkpt lat="49.430711986497045" lon="22.407401762902737">
        <ele>379.86000000000001</ele>
        <time>2014-10-11T11:22:58Z</time>
      </trkpt>
      <trkpt lat="49.430835619568825" lon="22.407737458124757">
        <ele>379.86000000000001</ele>
        <time>2014-10-11T11:23:07Z</time>
      </trkpt>
      <trkpt lat="49.430873254314065" lon="22.4077801220119">
        <ele>379.86000000000001</ele>
        <time>2014-10-11T11:23:29Z</time>
      </trkpt>
      <trkpt lat="49.430913487449288" lon="22.407851368188858">
        <ele>379.86000000000001</ele>
        <time>2014-10-11T11:23:41Z</time>
      </trkpt>
      <trkpt lat="49.430921617895365" lon="22.407861594110727">
        <ele>379.86000000000001</ele>
        <time>2014-10-11T11:24:26Z</time>
      </trkpt>
      <trkpt lat="49.430962521582842" lon="22.407962093129754">
        <ele>379.38</ele>
        <time>2014-10-11T11:24:34Z</time>
      </trkpt>
      <trkpt lat="49.431070480495691" lon="22.408300219103694">
        <ele>379.86000000000001</ele>
        <time>2014-10-11T11:24:42Z</time>
      </trkpt>
      <trkpt lat="49.431152371689677" lon="22.408489985391498">
        <ele>378.42000000000002</ele>
        <time>2014-10-11T11:27:22Z</time>
      </trkpt>
      <trkpt lat="49.43116083741188" lon="22.408504234626889">
        <ele>378.42000000000002</ele>
        <time>2014-10-11T11:27:55Z</time>
      </trkpt>
      <trkpt lat="49.431224120780826" lon="22.408746052533388">
        <ele>378.42000000000002</ele>
        <time>2014-10-11T11:28:43Z</time>
      </trkpt>
      <trkpt lat="49.431330822408199" lon="22.40908233448863">
        <ele>377.44999999999999</ele>
        <time>2014-10-11T11:29:38Z</time>
      </trkpt>
      <trkpt lat="49.431370636448264" lon="22.409281237050891">
        <ele>377.94</ele>
        <time>2014-10-11T11:29:43Z</time>
      </trkpt>
      <trkpt lat="49.431495610624552" lon="22.409739894792438">
        <ele>377.94</ele>
        <time>2014-10-11T11:30:32Z</time>
      </trkpt>
      <trkpt lat="49.431606838479638" lon="22.410076512023807">
        <ele>377.94</ele>
        <time>2014-10-11T11:30:53Z</time>
      </trkpt>
      <trkpt lat="49.431639360263944" lon="22.410428887233138">
        <ele>377.44999999999999</ele>
        <time>2014-10-11T11:31:45Z</time>
      </trkpt>
      <trkpt lat="49.431644808501005" lon="22.411055099219084">
        <ele>376.97000000000003</ele>
        <time>2014-10-11T11:32:37Z</time>
      </trkpt>
      <trkpt lat="49.4316675234586" lon="22.411746606230736">
        <ele>377.44999999999999</ele>
        <time>2014-10-11T11:33:21Z</time>
      </trkpt>
      <trkpt lat="49.431685460731387" lon="22.411799663677812">
        <ele>377.44999999999999</ele>
        <time>2014-10-11T11:34:08Z</time>
      </trkpt>
      <trkpt lat="49.431687807664275" lon="22.411806201562285">
        <ele>378.42000000000002</ele>
        <time>2014-10-11T11:35:31Z</time>
      </trkpt>
      <trkpt lat="49.431720077991486" lon="22.411909634247422">
        <ele>376.97000000000003</ele>
        <time>2014-10-11T11:35:38Z</time>
      </trkpt>
      <trkpt lat="49.431805070489645" lon="22.411726238206029">
        <ele>375.52999999999997</ele>
        <time>2014-10-11T11:38:07Z</time>
      </trkpt>
      <trkpt lat="49.431846309453249" lon="22.411591289564967">
        <ele>374.56999999999999</ele>
        <time>2014-10-11T11:39:30Z</time>
      </trkpt>
      <trkpt lat="49.432021994143724" lon="22.411235980689526">
        <ele>372.64999999999998</ele>
        <time>2014-10-11T11:42:22Z</time>
      </trkpt>
      <trkpt lat="49.432049402967095" lon="22.411173703148961">
        <ele>372.64999999999998</ele>
        <time>2014-10-11T11:42:24Z</time>
      </trkpt>
      <trkpt lat="49.432179406285286" lon="22.410895926877856">
        <ele>370.73000000000002</ele>
        <time>2014-10-11T11:42:31Z</time>
      </trkpt>
      <trkpt lat="49.43229884840548" lon="22.410768354311585">
        <ele>368.31999999999999</ele>
        <time>2014-10-11T11:42:47Z</time>
      </trkpt>
      <trkpt lat="49.432314354926348" lon="22.410763576626778">
        <ele>368.80000000000001</ele>
        <time>2014-10-11T11:42:49Z</time>
      </trkpt>
      <trkpt lat="49.432332962751389" lon="22.410746393725276">
        <ele>368.80000000000001</ele>
        <time>2014-10-11T11:42:50Z</time>
      </trkpt>
      <trkpt lat="49.432528512552381" lon="22.41059560328722">
        <ele>367.36000000000001</ele>
        <time>2014-10-11T11:42:56Z</time>
      </trkpt>
      <trkpt lat="49.432596238330007" lon="22.41051790304482">
        <ele>366.88</ele>
        <time>2014-10-11T12:25:10Z</time>
      </trkpt>
      <trkpt lat="49.433277435600758" lon="22.410232163965702">
        <ele>367.36000000000001</ele>
        <time>2014-10-11T12:29:20Z</time>
      </trkpt>
      <trkpt lat="49.433628721162677" lon="22.410110123455524">
        <ele>368.31999999999999</ele>
        <time>2014-10-11T12:29:30Z</time>
      </trkpt>
      <trkpt lat="49.434050833806396" lon="22.410051533952355">
        <ele>368.80000000000001</ele>
        <time>2014-10-11T12:29:42Z</time>
      </trkpt>
      <trkpt lat="49.434217885136604" lon="22.410180950537324">
        <ele>368.80000000000001</ele>
        <time>2014-10-11T12:29:49Z</time>
      </trkpt>
      <trkpt lat="49.434301620349288" lon="22.41041581146419">
        <ele>368.80000000000001</ele>
        <time>2014-10-11T12:31:20Z</time>
      </trkpt>
      <trkpt lat="49.434366412460804" lon="22.410659976303577">
        <ele>369.75999999999999</ele>
        <time>2014-10-11T12:32:00Z</time>
      </trkpt>
      <trkpt lat="49.434481747448444" lon="22.410950912162662">
        <ele>371.69</ele>
        <time>2014-10-11T12:32:15Z</time>
      </trkpt>
      <trkpt lat="49.434543270617723" lon="22.411127435043454">
        <ele>371.69</ele>
        <time>2014-10-11T12:34:08Z</time>
      </trkpt>
      <trkpt lat="49.434629939496517" lon="22.411374365910888">
        <ele>372.17000000000002</ele>
        <time>2014-10-11T12:34:22Z</time>
      </trkpt>
      <trkpt lat="49.434674363583326" lon="22.411528760567307">
        <ele>371.69</ele>
        <time>2014-10-11T12:36:03Z</time>
      </trkpt>
      <trkpt lat="49.434842588379979" lon="22.411490119993687">
        <ele>371.20999999999998</ele>
        <time>2014-10-11T12:38:03Z</time>
      </trkpt>
      <trkpt lat="49.434863543137908" lon="22.411471344530582">
        <ele>370.73000000000002</ele>
        <time>2014-10-11T12:39:34Z</time>
      </trkpt>
      <trkpt lat="49.435012992471457" lon="22.411368582397699">
        <ele>370.73000000000002</ele>
        <time>2014-10-11T12:39:43Z</time>
      </trkpt>
      <trkpt lat="49.435256654396653" lon="22.411200106143951">
        <ele>369.27999999999997</ele>
        <time>2014-10-11T12:39:52Z</time>
      </trkpt>
      <trkpt lat="49.435459831729531" lon="22.411056607961655">
        <ele>368.80000000000001</ele>
        <time>2014-10-11T12:40:00Z</time>
      </trkpt>
      <trkpt lat="49.435464777052402" lon="22.411055434495211">
        <ele>368.31999999999999</ele>
        <time>2014-10-11T12:40:12Z</time>
      </trkpt>
      <trkpt lat="49.435460334643722" lon="22.411064654588699">
        <ele>368.80000000000001</ele>
        <time>2014-10-11T12:40:35Z</time>
      </trkpt>
      <trkpt lat="49.435435021296144" lon="22.411072282120585">
        <ele>368.80000000000001</ele>
        <time>2014-10-11T12:41:00Z</time>
      </trkpt>
      <trkpt lat="49.435491682961583" lon="22.411021906882524">
        <ele>368.80000000000001</ele>
        <time>2014-10-11T12:41:28Z</time>
      </trkpt>
      <trkpt lat="49.435502076521516" lon="22.411024086177349">
        <ele>368.80000000000001</ele>
        <time>2014-10-11T12:41:29Z</time>
      </trkpt>
      <trkpt lat="49.435516325756907" lon="22.411026600748301">
        <ele>368.80000000000001</ele>
        <time>2014-10-11T12:41:30Z</time>
      </trkpt>
      <trkpt lat="49.435534179210663" lon="22.411024002358317">
        <ele>368.80000000000001</ele>
        <time>2014-10-11T12:41:31Z</time>
      </trkpt>
      <trkpt lat="49.435554463416338" lon="22.411014446988702">
        <ele>368.31999999999999</ele>
        <time>2014-10-11T12:41:32Z</time>
      </trkpt>
      <trkpt lat="49.43557508289814" lon="22.411002796143293">
        <ele>368.31999999999999</ele>
        <time>2014-10-11T12:41:33Z</time>
      </trkpt>
      <trkpt lat="49.435865012928843" lon="22.410847563296556">
        <ele>368.31999999999999</ele>
        <time>2014-10-11T12:41:44Z</time>
      </trkpt>
      <trkpt lat="49.436190817505121" lon="22.410756116732955">
        <ele>367.36000000000001</ele>
        <time>2014-10-11T12:41:54Z</time>
      </trkpt>
      <trkpt lat="49.436498181894422" lon="22.4106449726969">
        <ele>367.83999999999997</ele>
        <time>2014-10-11T12:42:04Z</time>
      </trkpt>
      <trkpt lat="49.436830189079046" lon="22.41042117588222">
        <ele>367.36000000000001</ele>
        <time>2014-10-11T12:42:15Z</time>
      </trkpt>
      <trkpt lat="49.43710595369339" lon="22.410289328545332">
        <ele>367.83999999999997</ele>
        <time>2014-10-11T12:42:25Z</time>
      </trkpt>
      <trkpt lat="49.437172757461667" lon="22.410314055159688">
        <ele>367.36000000000001</ele>
        <time>2014-10-11T12:43:56Z</time>
      </trkpt>
      <trkpt lat="49.437250792980194" lon="22.410322353243828">
        <ele>367.83999999999997</ele>
        <time>2014-10-11T12:45:05Z</time>
      </trkpt>
      <trkpt lat="49.437463609501719" lon="22.41032830439508">
        <ele>368.31999999999999</ele>
        <time>2014-10-11T12:45:13Z</time>
      </trkpt>
      <trkpt lat="49.437662847340107" lon="22.410335764288902">
        <ele>366.39999999999998</ele>
        <time>2014-10-11T12:45:19Z</time>
      </trkpt>
      <trkpt lat="49.437953280285001" lon="22.410355797037482">
        <ele>364.95999999999998</ele>
        <time>2014-10-11T12:45:27Z</time>
      </trkpt>
      <trkpt lat="49.438308253884315" lon="22.410407513380051">
        <ele>366.39999999999998</ele>
        <time>2014-10-11T12:45:37Z</time>
      </trkpt>
      <trkpt lat="49.438540851697326" lon="22.410405753180385">
        <ele>365.44</ele>
        <time>2014-10-11T12:45:46Z</time>
      </trkpt>
      <trkpt lat="49.438570691272616" lon="22.410414554178715">
        <ele>365.44</ele>
        <time>2014-10-11T12:45:52Z</time>
      </trkpt>
      <trkpt lat="49.438561303541064" lon="22.410405753180385">
        <ele>365.44</ele>
        <time>2014-10-11T12:46:04Z</time>
      </trkpt>
      <trkpt lat="49.4386250898242" lon="22.410412710160017">
        <ele>365.44</ele>
        <time>2014-10-11T12:48:33Z</time>
      </trkpt>
      <trkpt lat="49.438734473660588" lon="22.41046903654933">
        <ele>365.44</ele>
        <time>2014-10-11T12:49:02Z</time>
      </trkpt>
      <trkpt lat="49.438940584659576" lon="22.41052377037704">
        <ele>365.44</ele>
        <time>2014-10-11T12:49:10Z</time>
      </trkpt>
      <trkpt lat="49.439101098105311" lon="22.410586047917604">
        <ele>364.95999999999998</ele>
        <time>2014-10-11T12:49:16Z</time>
      </trkpt>
      <trkpt lat="49.439339395612478" lon="22.410442801192403">
        <ele>365.44</ele>
        <time>2014-10-11T12:49:24Z</time>
      </trkpt>
      <trkpt lat="49.439555313438177" lon="22.410183381289244">
        <ele>365.44</ele>
        <time>2014-10-11T12:49:32Z</time>
      </trkpt>
      <trkpt lat="49.439817750826478" lon="22.409867634996772">
        <ele>365.44</ele>
        <time>2014-10-11T12:49:42Z</time>
      </trkpt>
      <trkpt lat="49.440063675865531" lon="22.409592792391777">
        <ele>365.92000000000002</ele>
        <time>2014-10-11T12:49:51Z</time>
      </trkpt>
      <trkpt lat="49.440351175144315" lon="22.409367403015494">
        <ele>365.44</ele>
        <time>2014-10-11T12:50:01Z</time>
      </trkpt>
      <trkpt lat="49.44061528891325" lon="22.409187108278275">
        <ele>365.92000000000002</ele>
        <time>2014-10-11T12:50:10Z</time>
      </trkpt>
      <trkpt lat="49.440682930871844" lon="22.409146204590797">
        <ele>365.92000000000002</ele>
        <time>2014-10-11T12:52:00Z</time>
      </trkpt>
      <trkpt lat="49.44106481038034" lon="22.408957947045565">
        <ele>366.39999999999998</ele>
        <time>2014-10-11T12:52:16Z</time>
      </trkpt>
      <trkpt lat="49.4414381403476" lon="22.408633148297668">
        <ele>366.39999999999998</ele>
        <time>2014-10-11T12:52:28Z</time>
      </trkpt>
      <trkpt lat="49.441665122285485" lon="22.408463582396507">
        <ele>365.92000000000002</ele>
        <time>2014-10-11T12:52:39Z</time>
      </trkpt>
      <trkpt lat="49.441834017634392" lon="22.40831128321588">
        <ele>366.39999999999998</ele>
        <time>2014-10-11T12:52:48Z</time>
      </trkpt>
      <trkpt lat="49.442032082006335" lon="22.4080840498209">
        <ele>367.36000000000001</ele>
        <time>2014-10-11T12:54:00Z</time>
      </trkpt>
      <trkpt lat="49.442047588527203" lon="22.408070638775826">
        <ele>367.36000000000001</ele>
        <time>2014-10-11T12:54:01Z</time>
      </trkpt>
      <trkpt lat="49.44206309504807" lon="22.408053707331419">
        <ele>367.83999999999997</ele>
        <time>2014-10-11T12:54:02Z</time>
      </trkpt>
      <trkpt lat="49.442077931016684" lon="22.408038955181837">
        <ele>367.36000000000001</ele>
        <time>2014-10-11T12:54:03Z</time>
      </trkpt>
      <trkpt lat="49.442093521356583" lon="22.408023867756128">
        <ele>367.83999999999997</ele>
        <time>2014-10-11T12:54:04Z</time>
      </trkpt>
      <trkpt lat="49.442110955715179" lon="22.408008277416229">
        <ele>367.36000000000001</ele>
        <time>2014-10-11T12:54:05Z</time>
      </trkpt>
      <trkpt lat="49.442128641530871" lon="22.407993525266647">
        <ele>367.83999999999997</ele>
        <time>2014-10-11T12:54:06Z</time>
      </trkpt>
      <trkpt lat="49.44224925711751" lon="22.407885147258639">
        <ele>368.31999999999999</ele>
        <time>2014-10-11T12:54:14Z</time>
      </trkpt>
      <trkpt lat="49.442398203536868" lon="22.407721448689699">
        <ele>369.27999999999997</ele>
        <time>2014-10-11T12:54:25Z</time>
      </trkpt>
      <trkpt lat="49.442512029781938" lon="22.407612567767501">
        <ele>369.75999999999999</ele>
        <time>2014-10-11T12:54:33Z</time>
      </trkpt>
      <trkpt lat="49.442524937912822" lon="22.407605610787868">
        <ele>370.24000000000001</ele>
        <time>2014-10-11T12:54:34Z</time>
      </trkpt>
      <trkpt lat="49.442535666748881" lon="22.407591864466667">
        <ele>370.24000000000001</ele>
        <time>2014-10-11T12:54:35Z</time>
      </trkpt>
      <trkpt lat="49.442543629556894" lon="22.407575519755483">
        <ele>369.75999999999999</ele>
        <time>2014-10-11T12:54:36Z</time>
      </trkpt>
      <trkpt lat="49.442552849650383" lon="22.407559929415584">
        <ele>369.75999999999999</ele>
        <time>2014-10-11T12:54:37Z</time>
      </trkpt>
      <trkpt lat="49.442588975653052" lon="22.407518774271011">
        <ele>370.24000000000001</ele>
        <time>2014-10-11T12:54:40Z</time>
      </trkpt>
      <trkpt lat="49.442600458860397" lon="22.407503435388207">
        <ele>370.73000000000002</ele>
        <time>2014-10-11T12:54:41Z</time>
      </trkpt>
      <trkpt lat="49.442612612619996" lon="22.407488850876689">
        <ele>370.24000000000001</ele>
        <time>2014-10-11T12:54:42Z</time>
      </trkpt>
      <trkpt lat="49.442623341456056" lon="22.407474853098392">
        <ele>370.73000000000002</ele>
        <time>2014-10-11T12:54:43Z</time>
      </trkpt>
      <trkpt lat="49.44263675250113" lon="22.407466219738126">
        <ele>370.73000000000002</ele>
        <time>2014-10-11T12:54:44Z</time>
      </trkpt>
      <trkpt lat="49.44264798425138" lon="22.407457167282701">
        <ele>370.73000000000002</ele>
        <time>2014-10-11T12:54:45Z</time>
      </trkpt>
      <trkpt lat="49.442656701430678" lon="22.407442750409245">
        <ele>370.73000000000002</ele>
        <time>2014-10-11T12:54:46Z</time>
      </trkpt>
      <trkpt lat="49.442664077505469" lon="22.407424813136458">
        <ele>371.20999999999998</ele>
        <time>2014-10-11T12:54:47Z</time>
      </trkpt>
      <trkpt lat="49.442677069455385" lon="22.407385837286711">
        <ele>371.20999999999998</ele>
        <time>2014-10-11T12:54:49Z</time>
      </trkpt>
      <trkpt lat="49.442688468843699" lon="22.407371168956161">
        <ele>371.20999999999998</ele>
        <time>2014-10-11T12:54:50Z</time>
      </trkpt>
      <trkpt lat="49.442699197679758" lon="22.407357674092054">
        <ele>371.20999999999998</ele>
        <time>2014-10-11T12:54:51Z</time>
      </trkpt>
      <trkpt lat="49.442706489935517" lon="22.407339653000236">
        <ele>371.20999999999998</ele>
        <time>2014-10-11T12:54:52Z</time>
      </trkpt>
      <trkpt lat="49.442714620381594" lon="22.407321045175195">
        <ele>371.69</ele>
        <time>2014-10-11T12:54:53Z</time>
      </trkpt>
      <trkpt lat="49.442722667008638" lon="22.407302353531122">
        <ele>372.17000000000002</ele>
        <time>2014-10-11T12:54:54Z</time>
      </trkpt>
      <trkpt lat="49.442827189341187" lon="22.40705156698823">
        <ele>373.61000000000001</ele>
        <time>2014-10-11T12:55:07Z</time>
      </trkpt>
      <trkpt lat="49.44286004640162" lon="22.406964311376214">
        <ele>374.08999999999997</ele>
        <time>2014-10-11T12:55:12Z</time>
      </trkpt>
      <trkpt lat="49.442868428304791" lon="22.406947547569871">
        <ele>374.08999999999997</ele>
        <time>2014-10-11T12:55:13Z</time>
      </trkpt>
      <trkpt lat="49.442930119112134" lon="22.406804300844669">
        <ele>375.05000000000001</ele>
        <time>2014-10-11T12:55:24Z</time>
      </trkpt>
      <trkpt lat="49.443009998649359" lon="22.406484447419643">
        <ele>377.44999999999999</ele>
        <time>2014-10-11T12:56:49Z</time>
      </trkpt>
      <trkpt lat="49.44309557788074" lon="22.40628445520997">
        <ele>379.38</ele>
        <time>2014-10-11T12:57:00Z</time>
      </trkpt>
      <trkpt lat="49.443185599520802" lon="22.406071722507477">
        <ele>381.30000000000001</ele>
        <time>2014-10-11T12:57:11Z</time>
      </trkpt>
      <trkpt lat="49.443277800455689" lon="22.405860917642713">
        <ele>383.22000000000003</ele>
        <time>2014-10-11T12:57:23Z</time>
      </trkpt>
      <trkpt lat="49.443344855681062" lon="22.405678778886795">
        <ele>384.66000000000003</ele>
        <time>2014-10-11T12:57:33Z</time>
      </trkpt>
      <trkpt lat="49.443413252010942" lon="22.405497813597322">
        <ele>386.11000000000001</ele>
        <time>2014-10-11T12:57:43Z</time>
      </trkpt>
      <trkpt lat="49.443475529551506" lon="22.405319279059768">
        <ele>387.55000000000001</ele>
        <time>2014-10-11T12:57:53Z</time>
      </trkpt>
      <trkpt lat="49.443532610312104" lon="22.405157089233398">
        <ele>388.50999999999999</ele>
        <time>2014-10-11T12:58:02Z</time>
      </trkpt>
      <trkpt lat="49.443643419072032" lon="22.404861962422729">
        <ele>389.94999999999999</ele>
        <time>2014-10-11T13:06:07Z</time>
      </trkpt>
      <trkpt lat="49.443676695227623" lon="22.404685690999031">
        <ele>390.91000000000003</ele>
        <time>2014-10-11T13:06:18Z</time>
      </trkpt>
      <trkpt lat="49.443688513711095" lon="22.404656270518899">
        <ele>390.91000000000003</ele>
        <time>2014-10-11T13:06:26Z</time>
      </trkpt>
      <trkpt lat="49.443693878129125" lon="22.40465878508985">
        <ele>390.91000000000003</ele>
        <time>2014-10-11T13:06:45Z</time>
      </trkpt>
      <trkpt lat="49.443695303052664" lon="22.404637662693858">
        <ele>390.43000000000001</ele>
        <time>2014-10-11T13:07:27Z</time>
      </trkpt>
      <trkpt lat="49.443702260032296" lon="22.404599357396364">
        <ele>390.91000000000003</ele>
        <time>2014-10-11T13:07:45Z</time>
      </trkpt>
      <trkpt lat="49.443746097385883" lon="22.404424427077174">
        <ele>389.94999999999999</ele>
        <time>2014-10-11T13:07:56Z</time>
      </trkpt>
      <trkpt lat="49.443815080448985" lon="22.404315713793039">
        <ele>388.99000000000001</ele>
        <time>2014-10-11T13:09:53Z</time>
      </trkpt>
      <trkpt lat="49.443888589739799" lon="22.404024358838797">
        <ele>386.58999999999997</ele>
        <time>2014-10-11T13:09:58Z</time>
      </trkpt>
      <trkpt lat="49.444015240296721" lon="22.40355639718473">
        <ele>383.69999999999999</ele>
        <time>2014-10-11T13:11:01Z</time>
      </trkpt>
      <trkpt lat="49.444054048508406" lon="22.403428237885237">
        <ele>383.22000000000003</ele>
        <time>2014-10-11T13:11:52Z</time>
      </trkpt>
      <trkpt lat="49.444175669923425" lon="22.403231766074896">
        <ele>381.30000000000001</ele>
        <time>2014-10-11T13:11:57Z</time>
      </trkpt>
      <trkpt lat="49.444378176704049" lon="22.402677638456225">
        <ele>378.89999999999998</ele>
        <time>2014-10-11T13:12:05Z</time>
      </trkpt>
      <trkpt lat="49.444404328241944" lon="22.402604296803474">
        <ele>378.89999999999998</ele>
        <time>2014-10-11T13:12:06Z</time>
      </trkpt>
      <trkpt lat="49.444507844746113" lon="22.402256028726697">
        <ele>377.44999999999999</ele>
        <time>2014-10-11T13:12:12Z</time>
      </trkpt>
      <trkpt lat="49.44453751668334" lon="22.402131054550409">
        <ele>377.44999999999999</ele>
        <time>2014-10-11T13:12:47Z</time>
      </trkpt>
      <trkpt lat="49.444536594673991" lon="22.402144214138389">
        <ele>376.97000000000003</ele>
        <time>2014-10-11T13:13:06Z</time>
      </trkpt>
      <trkpt lat="49.444557381793857" lon="22.402045642957091">
        <ele>377.44999999999999</ele>
        <time>2014-10-11T13:13:17Z</time>
      </trkpt>
      <trkpt lat="49.444561908021569" lon="22.402016976848245">
        <ele>377.44999999999999</ele>
        <time>2014-10-11T13:13:18Z</time>
      </trkpt>
      <trkpt lat="49.444566601887345" lon="22.401986634358764">
        <ele>377.44999999999999</ele>
        <time>2014-10-11T13:13:19Z</time>
      </trkpt>
      <trkpt lat="49.444570709019899" lon="22.401955369859934">
        <ele>377.44999999999999</ele>
        <time>2014-10-11T13:13:20Z</time>
      </trkpt>
      <trkpt lat="49.444571966305375" lon="22.401921087875962">
        <ele>376.97000000000003</ele>
        <time>2014-10-11T13:13:21Z</time>
      </trkpt>
      <trkpt lat="49.444604320451617" lon="22.401539543643594">
        <ele>376.97000000000003</ele>
        <time>2014-10-11T13:13:30Z</time>
      </trkpt>
      <trkpt lat="49.444599291309714" lon="22.401167219504714">
        <ele>376.00999999999999</ele>
        <time>2014-10-11T13:13:38Z</time>
      </trkpt>
      <trkpt lat="49.444574983790517" lon="22.400625916197896">
        <ele>374.56999999999999</ele>
        <time>2014-10-11T13:13:49Z</time>
      </trkpt>
      <trkpt lat="49.444554448127747" lon="22.400125516578555">
        <ele>374.08999999999997</ele>
        <time>2014-10-11T13:13:59Z</time>
      </trkpt>
      <trkpt lat="49.444456715136766" lon="22.39920862019062">
        <ele>371.69</ele>
        <time>2014-10-11T13:16:18Z</time>
      </trkpt>
      <trkpt lat="49.444476831704378" lon="22.39857779815793">
        <ele>370.24000000000001</ele>
        <time>2014-10-11T13:16:27Z</time>
      </trkpt>
      <trkpt lat="49.444501642137766" lon="22.398080667480826">
        <ele>369.27999999999997</ele>
        <time>2014-10-11T13:16:35Z</time>
      </trkpt>
      <trkpt lat="49.444519327953458" lon="22.397751091048121">
        <ele>368.31999999999999</ele>
        <time>2014-10-11T13:16:42Z</time>
      </trkpt>
      <trkpt lat="49.444576492533088" lon="22.397421011701226">
        <ele>367.83999999999997</ele>
        <time>2014-10-11T13:16:51Z</time>
      </trkpt>
      <trkpt lat="49.444644553586841" lon="22.397041646763682">
        <ele>367.83999999999997</ele>
        <time>2014-10-11T13:17:01Z</time>
      </trkpt>
      <trkpt lat="49.444702388718724" lon="22.396758003160357">
        <ele>367.83999999999997</ele>
        <time>2014-10-11T13:17:11Z</time>
      </trkpt>
      <trkpt lat="49.444731473922729" lon="22.396596064791083">
        <ele>366.39999999999998</ele>
        <time>2014-10-11T13:18:57Z</time>
      </trkpt>
      <trkpt lat="49.444744633510709" lon="22.396482406184077">
        <ele>366.88</ele>
        <time>2014-10-11T13:19:23Z</time>
      </trkpt>
      <trkpt lat="49.44484094157815" lon="22.396151404827833">
        <ele>366.39999999999998</ele>
        <time>2014-10-11T13:19:31Z</time>
      </trkpt>
      <trkpt lat="49.445011429488659" lon="22.395641198381782">
        <ele>365.44</ele>
        <time>2014-10-11T13:19:41Z</time>
      </trkpt>
      <trkpt lat="49.445211756974459" lon="22.395141804590821">
        <ele>365.44</ele>
        <time>2014-10-11T13:19:51Z</time>
      </trkpt>
      <trkpt lat="49.445489952340722" lon="22.394469073042274">
        <ele>364.95999999999998</ele>
        <time>2014-10-11T13:21:48Z</time>
      </trkpt>
      <trkpt lat="49.445733446627855" lon="22.393959537148476">
        <ele>363.51999999999998</ele>
        <time>2014-10-11T13:22:00Z</time>
      </trkpt>
      <trkpt lat="49.445885745808482" lon="22.393711181357503">
        <ele>357.75</ele>
        <time>2014-10-11T13:23:55Z</time>
      </trkpt>
      <trkpt lat="49.44597358815372" lon="22.393547566607594">
        <ele>362.55000000000001</ele>
        <time>2014-10-11T13:25:15Z</time>
      </trkpt>
      <trkpt lat="49.446263685822487" lon="22.393281273543835">
        <ele>362.06999999999999</ele>
        <time>2014-10-11T13:25:25Z</time>
      </trkpt>
      <trkpt lat="49.446561578661203" lon="22.393077425658703">
        <ele>361.58999999999997</ele>
        <time>2014-10-11T13:25:35Z</time>
      </trkpt>
      <trkpt lat="49.446816891431808" lon="22.392869805917144">
        <ele>361.58999999999997</ele>
        <time>2014-10-11T13:25:45Z</time>
      </trkpt>
      <trkpt lat="49.446915127336979" lon="22.392799062654376">
        <ele>360.63</ele>
        <time>2014-10-11T13:26:52Z</time>
      </trkpt>
      <trkpt lat="49.44730899296701" lon="22.392595550045371">
        <ele>361.11000000000001</ele>
        <time>2014-10-11T13:28:05Z</time>
      </trkpt>
      <trkpt lat="49.447583919391036" lon="22.392432019114494">
        <ele>361.11000000000001</ele>
        <time>2014-10-11T13:28:14Z</time>
      </trkpt>
      <trkpt lat="49.447873346507549" lon="22.392288185656071">
        <ele>362.06999999999999</ele>
        <time>2014-10-11T13:28:25Z</time>
      </trkpt>
      <trkpt lat="49.448209628462791" lon="22.392203528434038">
        <ele>360.63</ele>
        <time>2014-10-11T13:28:36Z</time>
      </trkpt>
      <trkpt lat="49.448543479666114" lon="22.392183328047395">
        <ele>359.67000000000002</ele>
        <time>2014-10-11T13:28:47Z</time>
      </trkpt>
      <trkpt lat="49.448868278414011" lon="22.392204282805324">
        <ele>360.14999999999998</ele>
        <time>2014-10-11T13:28:58Z</time>
      </trkpt>
      <trkpt lat="49.449189472943544" lon="22.392253233119845">
        <ele>360.14999999999998</ele>
        <time>2014-10-11T13:29:09Z</time>
      </trkpt>
      <trkpt lat="49.449401954188943" lon="22.39229061640799">
        <ele>360.63</ele>
        <time>2014-10-11T13:29:18Z</time>
      </trkpt>
      <trkpt lat="49.449457693845034" lon="22.392287598922849">
        <ele>360.63</ele>
        <time>2014-10-11T13:29:24Z</time>
      </trkpt>
      <trkpt lat="49.449460878968239" lon="22.39228424616158">
        <ele>360.63</ele>
        <time>2014-10-11T13:31:56Z</time>
      </trkpt>
      <trkpt lat="49.449534304440022" lon="22.392282737419009">
        <ele>360.63</ele>
        <time>2014-10-11T13:33:32Z</time>
      </trkpt>
      <trkpt lat="49.449722310528159" lon="22.392204282805324">
        <ele>360.63</ele>
        <time>2014-10-11T13:33:39Z</time>
      </trkpt>
      <trkpt lat="49.449911992996931" lon="22.392153320834041">
        <ele>361.11000000000001</ele>
        <time>2014-10-11T13:33:47Z</time>
      </trkpt>
      <trkpt lat="49.450078122317791" lon="22.392067490145564">
        <ele>361.58999999999997</ele>
        <time>2014-10-11T13:33:54Z</time>
      </trkpt>
      <trkpt lat="49.450245341286063" lon="22.391899432986975">
        <ele>360.63</ele>
        <time>2014-10-11T13:34:55Z</time>
      </trkpt>
      <trkpt lat="49.450324801728129" lon="22.391769848763943">
        <ele>360.63</ele>
        <time>2014-10-11T13:35:06Z</time>
      </trkpt>
      <trkpt lat="49.450441310182214" lon="22.391588548198342">
        <ele>360.63</ele>
        <time>2014-10-11T13:35:32Z</time>
      </trkpt>
      <trkpt lat="49.450484560802579" lon="22.391551584005356">
        <ele>360.14999999999998</ele>
        <time>2014-10-11T13:36:00Z</time>
      </trkpt>
      <trkpt lat="49.45050316862762" lon="22.391520822420716">
        <ele>360.14999999999998</ele>
        <time>2014-10-11T13:36:13Z</time>
      </trkpt>
      <trkpt lat="49.45061850361526" lon="22.391358129680157">
        <ele>360.63</ele>
        <time>2014-10-11T13:36:20Z</time>
      </trkpt>
      <trkpt lat="49.450845988467336" lon="22.391007179394364">
        <ele>361.11000000000001</ele>
        <time>2014-10-11T13:36:33Z</time>
      </trkpt>
      <trkpt lat="49.451080765575171" lon="22.390688080340624">
        <ele>361.11000000000001</ele>
        <time>2014-10-11T13:36:44Z</time>
      </trkpt>
      <trkpt lat="49.451221246272326" lon="22.390484232455492">
        <ele>361.11000000000001</ele>
        <time>2014-10-11T13:36:53Z</time>
      </trkpt>
      <trkpt lat="49.451284781098366" lon="22.390388762578368">
        <ele>361.11000000000001</ele>
        <time>2014-10-11T13:37:42Z</time>
      </trkpt>
      <trkpt lat="49.451450575143099" lon="22.39023637957871">
        <ele>361.58999999999997</ele>
        <time>2014-10-11T13:37:56Z</time>
      </trkpt>
      <trkpt lat="49.4514867849648" lon="22.390181561931968">
        <ele>362.06999999999999</ele>
        <time>2014-10-11T13:38:00Z</time>
      </trkpt>
      <trkpt lat="49.451583009213209" lon="22.390087014064193">
        <ele>362.55000000000001</ele>
        <time>2014-10-11T13:38:09Z</time>
      </trkpt>
      <trkpt lat="49.451606059446931" lon="22.39006832242012">
        <ele>362.06999999999999</ele>
        <time>2014-10-11T13:38:17Z</time>
      </trkpt>
      <trkpt lat="49.451702451333404" lon="22.390048205852509">
        <ele>362.06999999999999</ele>
        <time>2014-10-11T13:39:44Z</time>
      </trkpt>
      <trkpt lat="49.451715108007193" lon="22.390034962445498">
        <ele>362.55000000000001</ele>
        <time>2014-10-11T13:39:45Z</time>
      </trkpt>
      <trkpt lat="49.451843854039907" lon="22.389941588044167">
        <ele>362.06999999999999</ele>
        <time>2014-10-11T13:40:47Z</time>
      </trkpt>
      <trkpt lat="49.451818540692329" lon="22.38992465659976">
        <ele>362.06999999999999</ele>
        <time>2014-10-11T13:40:51Z</time>
      </trkpt>
      <trkpt lat="49.451712341979146" lon="22.389484690502286">
        <ele>361.11000000000001</ele>
        <time>2014-10-11T13:43:56Z</time>
      </trkpt>
      <trkpt lat="49.45166414603591" lon="22.389438170939684">
        <ele>360.63</ele>
        <time>2014-10-11T13:44:03Z</time>
      </trkpt>
      <trkpt lat="49.451614692807198" lon="22.38936910405755">
        <ele>360.63</ele>
        <time>2014-10-11T13:44:14Z</time>
      </trkpt>
      <trkpt lat="49.451446048915386" lon="22.38913063891232">
        <ele>360.14999999999998</ele>
        <time>2014-10-11T13:47:06Z</time>
      </trkpt>
      <trkpt lat="49.45137589238584" lon="22.38900063559413">
        <ele>360.14999999999998</ele>
        <time>2014-10-11T13:47:17Z</time>
      </trkpt>
      <trkpt lat="49.451340269297361" lon="22.388921426609159">
        <ele>358.70999999999998</ele>
        <time>2014-10-11T14:02:33Z</time>
      </trkpt>
      <trkpt lat="49.451237926259637" lon="22.388802906498313">
        <ele>358.23000000000002</ele>
        <time>2014-10-11T14:02:40Z</time>
      </trkpt>
      <trkpt lat="49.450992336496711" lon="22.388418596237898">
        <ele>358.23000000000002</ele>
        <time>2014-10-11T14:02:51Z</time>
      </trkpt>
      <trkpt lat="49.450705675408244" lon="22.387958178296685">
        <ele>358.23000000000002</ele>
        <time>2014-10-11T14:03:03Z</time>
      </trkpt>
      <trkpt lat="49.450567709282041" lon="22.387729771435261">
        <ele>357.75</ele>
        <time>2014-10-11T14:04:10Z</time>
      </trkpt>
      <trkpt lat="49.450548933818936" lon="22.387704290449619">
        <ele>357.75</ele>
        <time>2014-10-11T14:04:11Z</time>
      </trkpt>
      <trkpt lat="49.450380709022284" lon="22.387451240792871">
        <ele>357.75</ele>
        <time>2014-10-11T14:04:18Z</time>
      </trkpt>
      <trkpt lat="49.449967062100768" lon="22.386810444295406">
        <ele>357.26999999999998</ele>
        <time>2014-10-11T14:04:32Z</time>
      </trkpt>
      <trkpt lat="49.449674701318145" lon="22.386321611702442">
        <ele>356.79000000000002</ele>
        <time>2014-10-11T14:04:43Z</time>
      </trkpt>
      <trkpt lat="49.449569340795279" lon="22.386154560372233">
        <ele>357.26999999999998</ele>
        <time>2014-10-11T14:04:50Z</time>
      </trkpt>
      <trkpt lat="49.4495630543679" lon="22.386180628091097">
        <ele>356.79000000000002</ele>
        <time>2014-10-11T14:05:02Z</time>
      </trkpt>
      <trkpt lat="49.449574705213308" lon="22.386176101863384">
        <ele>357.26999999999998</ele>
        <time>2014-10-11T14:05:23Z</time>
      </trkpt>
      <trkpt lat="49.449592474848032" lon="22.386159505695105">
        <ele>356.79000000000002</ele>
        <time>2014-10-11T14:05:44Z</time>
      </trkpt>
      <trkpt lat="49.449563641101122" lon="22.386134024709463">
        <ele>356.79000000000002</ele>
        <time>2014-10-11T14:05:51Z</time>
      </trkpt>
      <trkpt lat="49.449547799304128" lon="22.386116590350866">
        <ele>356.79000000000002</ele>
        <time>2014-10-11T14:05:52Z</time>
      </trkpt>
      <trkpt lat="49.449527934193611" lon="22.386091947555542">
        <ele>356.79000000000002</ele>
        <time>2014-10-11T14:05:53Z</time>
      </trkpt>
      <trkpt lat="49.449506895616651" lon="22.386061688885093">
        <ele>356.79000000000002</ele>
        <time>2014-10-11T14:05:54Z</time>
      </trkpt>
      <trkpt lat="49.449484264478087" lon="22.386031178757548">
        <ele>356.79000000000002</ele>
        <time>2014-10-11T14:05:55Z</time>
      </trkpt>
      <trkpt lat="49.449236327782273" lon="22.385670254006982">
        <ele>356.79000000000002</ele>
        <time>2014-10-11T14:06:05Z</time>
      </trkpt>
      <trkpt lat="49.449037257581949" lon="22.385337073355913">
        <ele>356.79000000000002</ele>
        <time>2014-10-11T14:06:15Z</time>
      </trkpt>
      <trkpt lat="49.449044801294804" lon="22.385330116376281">
        <ele>357.26999999999998</ele>
        <time>2014-10-11T14:06:24Z</time>
      </trkpt>
      <trkpt lat="49.449063409119844" lon="22.385352412238717">
        <ele>356.79000000000002</ele>
        <time>2014-10-11T14:06:38Z</time>
      </trkpt>
      <trkpt lat="49.449062654748559" lon="22.385337492451072">
        <ele>356.79000000000002</ele>
        <time>2014-10-11T14:06:57Z</time>
      </trkpt>
      <trkpt lat="49.449026193469763" lon="22.385325925424695">
        <ele>356.79000000000002</ele>
        <time>2014-10-11T14:07:14Z</time>
      </trkpt>
      <trkpt lat="49.449007418006659" lon="22.385311340913177">
        <ele>356.79000000000002</ele>
        <time>2014-10-11T14:07:15Z</time>
      </trkpt>
      <trkpt lat="49.448989313095808" lon="22.385288206860423">
        <ele>357.26999999999998</ele>
        <time>2014-10-11T14:07:16Z</time>
      </trkpt>
      <trkpt lat="49.448781441897154" lon="22.384980423375964">
        <ele>357.26999999999998</ele>
        <time>2014-10-11T14:07:25Z</time>
      </trkpt>
      <trkpt lat="49.448503330349922" lon="22.384519670158625">
        <ele>357.26999999999998</ele>
        <time>2014-10-11T14:07:36Z</time>
      </trkpt>
      <trkpt lat="49.448252208530903" lon="22.384062772616744">
        <ele>357.26999999999998</ele>
        <time>2014-10-11T14:07:46Z</time>
      </trkpt>
      <trkpt lat="49.448125055059791" lon="22.383850542828441">
        <ele>357.26999999999998</ele>
        <time>2014-10-11T14:07:54Z</time>
      </trkpt>
      <trkpt lat="49.447975102812052" lon="22.383568910881877">
        <ele>357.26999999999998</ele>
        <time>2014-10-11T14:08:02Z</time>
      </trkpt>
      <trkpt lat="49.447801765054464" lon="22.383255679160357">
        <ele>357.75</ele>
        <time>2014-10-11T14:08:10Z</time>
      </trkpt>
      <trkpt lat="49.447694309055805" lon="22.383116371929646">
        <ele>357.75</ele>
        <time>2014-10-11T14:08:16Z</time>
      </trkpt>
      <trkpt lat="49.447671929374337" lon="22.383064404129982">
        <ele>358.23000000000002</ele>
        <time>2014-10-11T14:08:22Z</time>
      </trkpt>
      <trkpt lat="49.447676036506891" lon="22.383071780204773">
        <ele>357.26999999999998</ele>
        <time>2014-10-11T14:08:33Z</time>
      </trkpt>
      <trkpt lat="49.447686094790697" lon="22.383075384423137">
        <ele>357.26999999999998</ele>
        <time>2014-10-11T14:08:55Z</time>
      </trkpt>
      <trkpt lat="49.447682574391365" lon="22.383081587031484">
        <ele>357.75</ele>
        <time>2014-10-11T14:09:13Z</time>
      </trkpt>
      <trkpt lat="49.447669750079513" lon="22.383063565939665">
        <ele>357.26999999999998</ele>
        <time>2014-10-11T14:09:37Z</time>
      </trkpt>
      <trkpt lat="49.447661368176341" lon="22.383066583424807">
        <ele>356.79000000000002</ele>
        <time>2014-10-11T14:09:53Z</time>
      </trkpt>
      <trkpt lat="49.447650387883186" lon="22.383032301440835">
        <ele>357.26999999999998</ele>
        <time>2014-10-11T14:10:12Z</time>
      </trkpt>
      <trkpt lat="49.447649884968996" lon="22.383012352511287">
        <ele>357.26999999999998</ele>
        <time>2014-10-11T14:10:13Z</time>
      </trkpt>
      <trkpt lat="49.447640832513571" lon="22.382987625896931">
        <ele>357.26999999999998</ele>
        <time>2014-10-11T14:10:14Z</time>
      </trkpt>
      <trkpt lat="49.447526754811406" lon="22.382765170186758">
        <ele>357.26999999999998</ele>
        <time>2014-10-11T14:10:20Z</time>
      </trkpt>
      <trkpt lat="49.447305388748646" lon="22.382312966510653">
        <ele>357.26999999999998</ele>
        <time>2014-10-11T14:10:31Z</time>
      </trkpt>
      <trkpt lat="49.447156526148319" lon="22.382036447525024">
        <ele>356.79000000000002</ele>
        <time>2014-10-11T14:10:40Z</time>
      </trkpt>
      <trkpt lat="49.447128446772695" lon="22.381967296823859">
        <ele>356.79000000000002</ele>
        <time>2014-10-11T14:10:47Z</time>
      </trkpt>
      <trkpt lat="49.447087123990059" lon="22.381864450871944">
        <ele>357.75</ele>
        <time>2014-10-11T14:15:25Z</time>
      </trkpt>
      <trkpt lat="49.446952594444156" lon="22.381690191105008">
        <ele>357.26999999999998</ele>
        <time>2014-10-11T14:15:38Z</time>
      </trkpt>
      <trkpt lat="49.446956869214773" lon="22.381678121164441">
        <ele>357.26999999999998</ele>
        <time>2014-10-11T14:15:47Z</time>
      </trkpt>
      <trkpt lat="49.446959802880883" lon="22.381701758131385">
        <ele>357.26999999999998</ele>
        <time>2014-10-11T14:17:03Z</time>
      </trkpt>
      <trkpt lat="49.446955109015107" lon="22.381669068709016">
        <ele>357.75</ele>
        <time>2014-10-11T14:17:25Z</time>
      </trkpt>
      <trkpt lat="49.44679300300777" lon="22.381598576903343">
        <ele>356.79000000000002</ele>
        <time>2014-10-11T14:18:20Z</time>
      </trkpt>
      <trkpt lat="49.446571636945009" lon="22.381594972684979">
        <ele>356.31</ele>
        <time>2014-10-11T14:18:54Z</time>
      </trkpt>
      <trkpt lat="49.446130078285933" lon="22.381668817251921">
        <ele>356.31</ele>
        <time>2014-10-11T14:19:05Z</time>
      </trkpt>
      <trkpt lat="49.445827659219503" lon="22.381756072863936">
        <ele>355.33999999999997</ele>
        <time>2014-10-11T14:19:51Z</time>
      </trkpt>
      <trkpt lat="49.445798993110657" lon="22.381761521100998">
        <ele>355.33999999999997</ele>
        <time>2014-10-11T14:20:14Z</time>
      </trkpt>
      <trkpt lat="49.44578499533236" lon="22.381766466423869">
        <ele>355.33999999999997</ele>
        <time>2014-10-11T14:20:15Z</time>
      </trkpt>
      <trkpt lat="49.445764878764749" lon="22.381768813356757">
        <ele>355.33999999999997</ele>
        <time>2014-10-11T14:20:16Z</time>
      </trkpt>
      <trkpt lat="49.445739733055234" lon="22.381773926317692">
        <ele>355.33999999999997</ele>
        <time>2014-10-11T14:20:17Z</time>
      </trkpt>
      <trkpt lat="49.445710061118007" lon="22.381781386211514">
        <ele>355.33999999999997</ele>
        <time>2014-10-11T14:20:18Z</time>
      </trkpt>
      <trkpt lat="49.445677204057574" lon="22.381789265200496">
        <ele>355.33999999999997</ele>
        <time>2014-10-11T14:20:19Z</time>
      </trkpt>
      <trkpt lat="49.445353578776121" lon="22.381871491670609">
        <ele>354.86000000000001</ele>
        <time>2014-10-11T14:20:28Z</time>
      </trkpt>
      <trkpt lat="49.444952420890331" lon="22.381951957941055">
        <ele>354.86000000000001</ele>
        <time>2014-10-11T14:20:40Z</time>
      </trkpt>
      <trkpt lat="49.444639608263969" lon="22.381981210783124">
        <ele>353.89999999999998</ele>
        <time>2014-10-11T14:20:50Z</time>
      </trkpt>
      <trkpt lat="49.444305170327425" lon="22.381999148055911">
        <ele>353.89999999999998</ele>
        <time>2014-10-11T14:21:00Z</time>
      </trkpt>
      <trkpt lat="49.443861432373524" lon="22.38199177198112">
        <ele>353.89999999999998</ele>
        <time>2014-10-11T14:21:12Z</time>
      </trkpt>
      <trkpt lat="49.443548200652003" lon="22.382024712860584">
        <ele>353.42000000000002</ele>
        <time>2014-10-11T14:21:23Z</time>
      </trkpt>
      <trkpt lat="49.443527664989233" lon="22.382023623213172">
        <ele>353.42000000000002</ele>
        <time>2014-10-11T14:21:28Z</time>
      </trkpt>
      <trkpt lat="49.44346253760159" lon="22.382015492767096">
        <ele>353.42000000000002</ele>
        <time>2014-10-11T14:21:35Z</time>
      </trkpt>
      <trkpt lat="49.443412497639656" lon="22.382032927125692">
        <ele>353.89999999999998</ele>
        <time>2014-10-11T14:22:19Z</time>
      </trkpt>
      <trkpt lat="49.443245194852352" lon="22.382062263786793">
        <ele>353.42000000000002</ele>
        <time>2014-10-11T14:22:31Z</time>
      </trkpt>
      <trkpt lat="49.44315860979259" lon="22.382196960970759">
        <ele>353.89999999999998</ele>
        <time>2014-10-11T14:22:41Z</time>
      </trkpt>
      <trkpt lat="49.443155508488417" lon="22.382171899080276">
        <ele>354.38</ele>
        <time>2014-10-11T14:23:50Z</time>
      </trkpt>
    </trkseg>
  </trk>

</gpx>